<?xml version="1.0" encoding="utf-8"?>
<gpx xmlns:xsi="http://www.w3.org/2001/XMLSchema-instance" xmlns:xsd="http://www.w3.org/2001/XMLSchema" version="1.1" creator="Shapelink.com" xmlns="http://www.topografix.com/GPX/1/1" xmlns:gpxtpx="http://www.garmin.com/xmlschemas/TrackPointExtension/v1">
  <metadata>
    <name>Gåing 1.10 km, 2013-05-13</name>
    <desc></desc>
    <author><name>Mikael Blom</name></author> 
    <time>2013-05-13T17:48:13Z</time>
  </metadata>
  <trk>
    <name>Gåing 1.10 km, 2013-05-13</name>
    <trkseg>
      <trkpt lat="59.9789158" lon="17.7393507">
        <ele>37.6287</ele>
        <time>2013-05-13T17:48:13Z</time>
      </trkpt>
      <trkpt lat="59.9789076" lon="17.7393477">
        <ele>37.6287</ele>
        <time>2013-05-13T17:48:14Z</time>
      </trkpt>
      <trkpt lat="59.9788972" lon="17.7393476">
        <ele>37.6287</ele>
        <time>2013-05-13T17:48:15Z</time>
      </trkpt>
      <trkpt lat="59.9788857" lon="17.7393471">
        <ele>37.6287</ele>
        <time>2013-05-13T17:48:16Z</time>
      </trkpt>
      <trkpt lat="59.9788725" lon="17.7393492">
        <ele>37.6287</ele>
        <time>2013-05-13T17:48:17Z</time>
      </trkpt>
      <trkpt lat="59.9788585" lon="17.7393569">
        <ele>37.6287</ele>
        <time>2013-05-13T17:48:18Z</time>
      </trkpt>
      <trkpt lat="59.9788454" lon="17.7393574">
        <ele>37.6287</ele>
        <time>2013-05-13T17:48:19Z</time>
      </trkpt>
      <trkpt lat="59.9788351" lon="17.7393528">
        <ele>37.6287</ele>
        <time>2013-05-13T17:48:20Z</time>
      </trkpt>
      <trkpt lat="59.9788247" lon="17.7393573">
        <ele>38.1094</ele>
        <time>2013-05-13T17:48:21Z</time>
      </trkpt>
      <trkpt lat="59.9788126" lon="17.7393593">
        <ele>37.6287</ele>
        <time>2013-05-13T17:48:22Z</time>
      </trkpt>
      <trkpt lat="59.9788019" lon="17.7393648">
        <ele>38.1094</ele>
        <time>2013-05-13T17:48:23Z</time>
      </trkpt>
      <trkpt lat="59.9787915" lon="17.7393709">
        <ele>37.6287</ele>
        <time>2013-05-13T17:48:24Z</time>
      </trkpt>
      <trkpt lat="59.9787807" lon="17.7393667">
        <ele>37.6287</ele>
        <time>2013-05-13T17:48:25Z</time>
      </trkpt>
      <trkpt lat="59.9787681" lon="17.7393605">
        <ele>37.1481</ele>
        <time>2013-05-13T17:48:26Z</time>
      </trkpt>
      <trkpt lat="59.9787548" lon="17.7393544">
        <ele>37.1481</ele>
        <time>2013-05-13T17:48:27Z</time>
      </trkpt>
      <trkpt lat="59.9787427" lon="17.7393538">
        <ele>37.1481</ele>
        <time>2013-05-13T17:48:28Z</time>
      </trkpt>
      <trkpt lat="59.9787313" lon="17.7393486">
        <ele>36.6675</ele>
        <time>2013-05-13T17:48:29Z</time>
      </trkpt>
      <trkpt lat="59.9787195" lon="17.7393415">
        <ele>36.1868</ele>
        <time>2013-05-13T17:48:30Z</time>
      </trkpt>
      <trkpt lat="59.9787079" lon="17.7393362">
        <ele>35.7061</ele>
        <time>2013-05-13T17:48:31Z</time>
      </trkpt>
      <trkpt lat="59.978694" lon="17.7393409">
        <ele>36.1868</ele>
        <time>2013-05-13T17:48:32Z</time>
      </trkpt>
      <trkpt lat="59.9786789" lon="17.7393453">
        <ele>36.6675</ele>
        <time>2013-05-13T17:48:33Z</time>
      </trkpt>
      <trkpt lat="59.9786677" lon="17.7393455">
        <ele>36.6675</ele>
        <time>2013-05-13T17:48:34Z</time>
      </trkpt>
      <trkpt lat="59.9786572" lon="17.7393445">
        <ele>36.6675</ele>
        <time>2013-05-13T17:48:35Z</time>
      </trkpt>
      <trkpt lat="59.9786464" lon="17.7393439">
        <ele>36.6675</ele>
        <time>2013-05-13T17:48:36Z</time>
      </trkpt>
      <trkpt lat="59.9786356" lon="17.7393428">
        <ele>37.1481</ele>
        <time>2013-05-13T17:48:37Z</time>
      </trkpt>
      <trkpt lat="59.9786258" lon="17.7393451">
        <ele>37.1481</ele>
        <time>2013-05-13T17:48:38Z</time>
      </trkpt>
      <trkpt lat="59.9786195" lon="17.7393393">
        <ele>37.1481</ele>
        <time>2013-05-13T17:48:39Z</time>
      </trkpt>
      <trkpt lat="59.978607" lon="17.7393309">
        <ele>37.1481</ele>
        <time>2013-05-13T17:48:40Z</time>
      </trkpt>
      <trkpt lat="59.9785952" lon="17.7393318">
        <ele>38.1094</ele>
        <time>2013-05-13T17:48:41Z</time>
      </trkpt>
      <trkpt lat="59.9785838" lon="17.7393382">
        <ele>38.1094</ele>
        <time>2013-05-13T17:48:42Z</time>
      </trkpt>
      <trkpt lat="59.9785728" lon="17.7393434">
        <ele>38.1094</ele>
        <time>2013-05-13T17:48:43Z</time>
      </trkpt>
      <trkpt lat="59.9785614" lon="17.739351">
        <ele>38.1094</ele>
        <time>2013-05-13T17:48:44Z</time>
      </trkpt>
      <trkpt lat="59.9785394" lon="17.739359">
        <ele>38.5901</ele>
        <time>2013-05-13T17:48:45Z</time>
      </trkpt>
      <trkpt lat="59.9785254" lon="17.7393676">
        <ele>38.5901</ele>
        <time>2013-05-13T17:48:46Z</time>
      </trkpt>
      <trkpt lat="59.9785129" lon="17.7393661">
        <ele>38.5901</ele>
        <time>2013-05-13T17:48:47Z</time>
      </trkpt>
      <trkpt lat="59.9784963" lon="17.7393594">
        <ele>38.5901</ele>
        <time>2013-05-13T17:48:48Z</time>
      </trkpt>
      <trkpt lat="59.9784816" lon="17.7393476">
        <ele>38.5901</ele>
        <time>2013-05-13T17:48:49Z</time>
      </trkpt>
      <trkpt lat="59.9784671" lon="17.7393393">
        <ele>39.0707</ele>
        <time>2013-05-13T17:48:50Z</time>
      </trkpt>
      <trkpt lat="59.9784577" lon="17.7393315">
        <ele>39.0707</ele>
        <time>2013-05-13T17:48:51Z</time>
      </trkpt>
      <trkpt lat="59.9784432" lon="17.7393261">
        <ele>39.5513</ele>
        <time>2013-05-13T17:48:52Z</time>
      </trkpt>
      <trkpt lat="59.9784316" lon="17.7393222">
        <ele>39.5513</ele>
        <time>2013-05-13T17:48:53Z</time>
      </trkpt>
      <trkpt lat="59.9784185" lon="17.7393159">
        <ele>39.5513</ele>
        <time>2013-05-13T17:48:54Z</time>
      </trkpt>
      <trkpt lat="59.9784056" lon="17.7393109">
        <ele>39.0707</ele>
        <time>2013-05-13T17:48:55Z</time>
      </trkpt>
      <trkpt lat="59.9783927" lon="17.7393077">
        <ele>38.5901</ele>
        <time>2013-05-13T17:48:56Z</time>
      </trkpt>
      <trkpt lat="59.9783761" lon="17.7393009">
        <ele>38.1094</ele>
        <time>2013-05-13T17:48:57Z</time>
      </trkpt>
      <trkpt lat="59.9783576" lon="17.7392963">
        <ele>38.1094</ele>
        <time>2013-05-13T17:48:58Z</time>
      </trkpt>
      <trkpt lat="59.9783362" lon="17.7392894">
        <ele>38.5901</ele>
        <time>2013-05-13T17:48:59Z</time>
      </trkpt>
      <trkpt lat="59.9783181" lon="17.7392886">
        <ele>38.5901</ele>
        <time>2013-05-13T17:49:00Z</time>
      </trkpt>
      <trkpt lat="59.9783051" lon="17.7392855">
        <ele>38.5901</ele>
        <time>2013-05-13T17:49:01Z</time>
      </trkpt>
      <trkpt lat="59.9782936" lon="17.7392823">
        <ele>38.1094</ele>
        <time>2013-05-13T17:49:02Z</time>
      </trkpt>
      <trkpt lat="59.9782718" lon="17.7392714">
        <ele>38.1094</ele>
        <time>2013-05-13T17:49:03Z</time>
      </trkpt>
      <trkpt lat="59.9782502" lon="17.7392569">
        <ele>38.1094</ele>
        <time>2013-05-13T17:49:04Z</time>
      </trkpt>
      <trkpt lat="59.9782316" lon="17.739244">
        <ele>38.1094</ele>
        <time>2013-05-13T17:49:05Z</time>
      </trkpt>
      <trkpt lat="59.9782136" lon="17.739235">
        <ele>37.6287</ele>
        <time>2013-05-13T17:49:06Z</time>
      </trkpt>
      <trkpt lat="59.9781953" lon="17.7392295">
        <ele>37.6287</ele>
        <time>2013-05-13T17:49:07Z</time>
      </trkpt>
      <trkpt lat="59.9781814" lon="17.7392199">
        <ele>37.6287</ele>
        <time>2013-05-13T17:49:08Z</time>
      </trkpt>
      <trkpt lat="59.978169" lon="17.7392156">
        <ele>38.1094</ele>
        <time>2013-05-13T17:49:09Z</time>
      </trkpt>
      <trkpt lat="59.9781599" lon="17.7392201">
        <ele>37.6287</ele>
        <time>2013-05-13T17:49:10Z</time>
      </trkpt>
      <trkpt lat="59.9781445" lon="17.739218">
        <ele>38.1094</ele>
        <time>2013-05-13T17:49:11Z</time>
      </trkpt>
      <trkpt lat="59.9781284" lon="17.7392104">
        <ele>37.6287</ele>
        <time>2013-05-13T17:49:12Z</time>
      </trkpt>
      <trkpt lat="59.978115" lon="17.7392055">
        <ele>37.6287</ele>
        <time>2013-05-13T17:49:13Z</time>
      </trkpt>
      <trkpt lat="59.9781015" lon="17.7392032">
        <ele>37.6287</ele>
        <time>2013-05-13T17:49:14Z</time>
      </trkpt>
      <trkpt lat="59.9780902" lon="17.7391974">
        <ele>37.6287</ele>
        <time>2013-05-13T17:49:15Z</time>
      </trkpt>
      <trkpt lat="59.9780765" lon="17.7391891">
        <ele>37.6287</ele>
        <time>2013-05-13T17:49:16Z</time>
      </trkpt>
      <trkpt lat="59.9780627" lon="17.7391818">
        <ele>38.1094</ele>
        <time>2013-05-13T17:49:17Z</time>
      </trkpt>
      <trkpt lat="59.978047" lon="17.7391792">
        <ele>38.1094</ele>
        <time>2013-05-13T17:49:18Z</time>
      </trkpt>
      <trkpt lat="59.978032" lon="17.7391769">
        <ele>39.0707</ele>
        <time>2013-05-13T17:49:19Z</time>
      </trkpt>
      <trkpt lat="59.9780182" lon="17.7391718">
        <ele>39.0707</ele>
        <time>2013-05-13T17:49:20Z</time>
      </trkpt>
      <trkpt lat="59.9780067" lon="17.7391626">
        <ele>39.0707</ele>
        <time>2013-05-13T17:49:21Z</time>
      </trkpt>
      <trkpt lat="59.9779954" lon="17.7391574">
        <ele>39.0707</ele>
        <time>2013-05-13T17:49:22Z</time>
      </trkpt>
      <trkpt lat="59.9779809" lon="17.7391506">
        <ele>39.0707</ele>
        <time>2013-05-13T17:49:23Z</time>
      </trkpt>
      <trkpt lat="59.9779674" lon="17.7391387">
        <ele>39.0707</ele>
        <time>2013-05-13T17:49:24Z</time>
      </trkpt>
      <trkpt lat="59.977956" lon="17.7391391">
        <ele>39.0707</ele>
        <time>2013-05-13T17:49:25Z</time>
      </trkpt>
      <trkpt lat="59.9779452" lon="17.7391362">
        <ele>39.0707</ele>
        <time>2013-05-13T17:49:26Z</time>
      </trkpt>
      <trkpt lat="59.9779335" lon="17.7391326">
        <ele>39.5513</ele>
        <time>2013-05-13T17:49:27Z</time>
      </trkpt>
      <trkpt lat="59.9779211" lon="17.7391306">
        <ele>39.5513</ele>
        <time>2013-05-13T17:49:28Z</time>
      </trkpt>
      <trkpt lat="59.9779088" lon="17.739132">
        <ele>40.0321</ele>
        <time>2013-05-13T17:49:29Z</time>
      </trkpt>
      <trkpt lat="59.977898" lon="17.7391305">
        <ele>40.0321</ele>
        <time>2013-05-13T17:49:30Z</time>
      </trkpt>
      <trkpt lat="59.9778867" lon="17.7391248">
        <ele>40.0321</ele>
        <time>2013-05-13T17:49:31Z</time>
      </trkpt>
      <trkpt lat="59.9778694" lon="17.7391145">
        <ele>40.5128</ele>
        <time>2013-05-13T17:49:32Z</time>
      </trkpt>
      <trkpt lat="59.977856" lon="17.7391098">
        <ele>40.5128</ele>
        <time>2013-05-13T17:49:33Z</time>
      </trkpt>
      <trkpt lat="59.9778445" lon="17.739105">
        <ele>40.5128</ele>
        <time>2013-05-13T17:49:34Z</time>
      </trkpt>
      <trkpt lat="59.9778332" lon="17.7391031">
        <ele>40.9934</ele>
        <time>2013-05-13T17:49:35Z</time>
      </trkpt>
      <trkpt lat="59.9778216" lon="17.7391027">
        <ele>40.9934</ele>
        <time>2013-05-13T17:49:36Z</time>
      </trkpt>
      <trkpt lat="59.9778074" lon="17.7390995">
        <ele>40.9934</ele>
        <time>2013-05-13T17:49:37Z</time>
      </trkpt>
      <trkpt lat="59.9777905" lon="17.7390912">
        <ele>40.9934</ele>
        <time>2013-05-13T17:49:38Z</time>
      </trkpt>
      <trkpt lat="59.9777738" lon="17.7390808">
        <ele>40.9934</ele>
        <time>2013-05-13T17:49:39Z</time>
      </trkpt>
      <trkpt lat="59.9777593" lon="17.7390755">
        <ele>40.9934</ele>
        <time>2013-05-13T17:49:40Z</time>
      </trkpt>
      <trkpt lat="59.9777436" lon="17.7390704">
        <ele>40.9934</ele>
        <time>2013-05-13T17:49:41Z</time>
      </trkpt>
      <trkpt lat="59.9777291" lon="17.7390679">
        <ele>41.474</ele>
        <time>2013-05-13T17:49:42Z</time>
      </trkpt>
      <trkpt lat="59.9777136" lon="17.7390664">
        <ele>41.474</ele>
        <time>2013-05-13T17:49:43Z</time>
      </trkpt>
      <trkpt lat="59.9776979" lon="17.7390657">
        <ele>41.9547</ele>
        <time>2013-05-13T17:49:44Z</time>
      </trkpt>
      <trkpt lat="59.9776835" lon="17.7390662">
        <ele>41.9547</ele>
        <time>2013-05-13T17:49:45Z</time>
      </trkpt>
      <trkpt lat="59.9776696" lon="17.7390659">
        <ele>42.4354</ele>
        <time>2013-05-13T17:49:46Z</time>
      </trkpt>
      <trkpt lat="59.9776548" lon="17.7390672">
        <ele>42.4354</ele>
        <time>2013-05-13T17:49:47Z</time>
      </trkpt>
      <trkpt lat="59.97764" lon="17.7390698">
        <ele>42.4354</ele>
        <time>2013-05-13T17:49:48Z</time>
      </trkpt>
      <trkpt lat="59.9776266" lon="17.7390739">
        <ele>42.916</ele>
        <time>2013-05-13T17:49:49Z</time>
      </trkpt>
      <trkpt lat="59.977613" lon="17.7390763">
        <ele>42.4354</ele>
        <time>2013-05-13T17:49:50Z</time>
      </trkpt>
      <trkpt lat="59.9776015" lon="17.7390792">
        <ele>42.4354</ele>
        <time>2013-05-13T17:49:51Z</time>
      </trkpt>
      <trkpt lat="59.9775899" lon="17.7390853">
        <ele>42.4354</ele>
        <time>2013-05-13T17:49:52Z</time>
      </trkpt>
      <trkpt lat="59.9775769" lon="17.7390906">
        <ele>42.4354</ele>
        <time>2013-05-13T17:49:53Z</time>
      </trkpt>
      <trkpt lat="59.9775629" lon="17.7390941">
        <ele>41.9547</ele>
        <time>2013-05-13T17:49:54Z</time>
      </trkpt>
      <trkpt lat="59.9775502" lon="17.7390984">
        <ele>41.9547</ele>
        <time>2013-05-13T17:49:55Z</time>
      </trkpt>
      <trkpt lat="59.9775368" lon="17.7391049">
        <ele>41.9547</ele>
        <time>2013-05-13T17:49:56Z</time>
      </trkpt>
      <trkpt lat="59.9775229" lon="17.7391073">
        <ele>41.9547</ele>
        <time>2013-05-13T17:49:57Z</time>
      </trkpt>
      <trkpt lat="59.9775098" lon="17.7391106">
        <ele>41.9547</ele>
        <time>2013-05-13T17:49:58Z</time>
      </trkpt>
      <trkpt lat="59.9774969" lon="17.7391137">
        <ele>41.474</ele>
        <time>2013-05-13T17:49:59Z</time>
      </trkpt>
      <trkpt lat="59.977483" lon="17.7391165">
        <ele>41.474</ele>
        <time>2013-05-13T17:50:00Z</time>
      </trkpt>
      <trkpt lat="59.9774669" lon="17.739122">
        <ele>41.474</ele>
        <time>2013-05-13T17:50:01Z</time>
      </trkpt>
      <trkpt lat="59.977452" lon="17.7391299">
        <ele>41.474</ele>
        <time>2013-05-13T17:50:02Z</time>
      </trkpt>
      <trkpt lat="59.9774388" lon="17.7391346">
        <ele>40.9934</ele>
        <time>2013-05-13T17:50:03Z</time>
      </trkpt>
      <trkpt lat="59.9774235" lon="17.7391407">
        <ele>40.9934</ele>
        <time>2013-05-13T17:50:04Z</time>
      </trkpt>
      <trkpt lat="59.9774069" lon="17.7391487">
        <ele>40.9934</ele>
        <time>2013-05-13T17:50:05Z</time>
      </trkpt>
      <trkpt lat="59.9773909" lon="17.7391496">
        <ele>40.5128</ele>
        <time>2013-05-13T17:50:06Z</time>
      </trkpt>
      <trkpt lat="59.9773763" lon="17.739158">
        <ele>40.5128</ele>
        <time>2013-05-13T17:50:07Z</time>
      </trkpt>
      <trkpt lat="59.9773613" lon="17.7391652">
        <ele>40.5128</ele>
        <time>2013-05-13T17:50:08Z</time>
      </trkpt>
      <trkpt lat="59.9773473" lon="17.7391695">
        <ele>40.0321</ele>
        <time>2013-05-13T17:50:09Z</time>
      </trkpt>
      <trkpt lat="59.9773337" lon="17.7391742">
        <ele>39.5513</ele>
        <time>2013-05-13T17:50:10Z</time>
      </trkpt>
      <trkpt lat="59.9773199" lon="17.7391745">
        <ele>39.0707</ele>
        <time>2013-05-13T17:50:11Z</time>
      </trkpt>
      <trkpt lat="59.9773059" lon="17.7391778">
        <ele>38.5901</ele>
        <time>2013-05-13T17:50:12Z</time>
      </trkpt>
      <trkpt lat="59.9772915" lon="17.7391842">
        <ele>38.5901</ele>
        <time>2013-05-13T17:50:13Z</time>
      </trkpt>
      <trkpt lat="59.9772769" lon="17.7391879">
        <ele>38.5901</ele>
        <time>2013-05-13T17:50:14Z</time>
      </trkpt>
      <trkpt lat="59.9772643" lon="17.7391984">
        <ele>38.1094</ele>
        <time>2013-05-13T17:50:15Z</time>
      </trkpt>
      <trkpt lat="59.9772518" lon="17.7392085">
        <ele>37.6287</ele>
        <time>2013-05-13T17:50:16Z</time>
      </trkpt>
      <trkpt lat="59.9772365" lon="17.7392113">
        <ele>36.6675</ele>
        <time>2013-05-13T17:50:17Z</time>
      </trkpt>
      <trkpt lat="59.9772203" lon="17.7392265">
        <ele>37.6287</ele>
        <time>2013-05-13T17:50:18Z</time>
      </trkpt>
      <trkpt lat="59.9772049" lon="17.7392462">
        <ele>38.1094</ele>
        <time>2013-05-13T17:50:19Z</time>
      </trkpt>
      <trkpt lat="59.977191" lon="17.7392574">
        <ele>38.1094</ele>
        <time>2013-05-13T17:50:20Z</time>
      </trkpt>
      <trkpt lat="59.9771774" lon="17.7392688">
        <ele>38.1094</ele>
        <time>2013-05-13T17:50:21Z</time>
      </trkpt>
      <trkpt lat="59.977165" lon="17.7392802">
        <ele>38.1094</ele>
        <time>2013-05-13T17:50:22Z</time>
      </trkpt>
      <trkpt lat="59.9771501" lon="17.7392958">
        <ele>38.5901</ele>
        <time>2013-05-13T17:50:23Z</time>
      </trkpt>
      <trkpt lat="59.9771355" lon="17.739306">
        <ele>38.5901</ele>
        <time>2013-05-13T17:50:24Z</time>
      </trkpt>
      <trkpt lat="59.977121" lon="17.7393155">
        <ele>38.5901</ele>
        <time>2013-05-13T17:50:25Z</time>
      </trkpt>
      <trkpt lat="59.9771055" lon="17.7393192">
        <ele>38.5901</ele>
        <time>2013-05-13T17:50:26Z</time>
      </trkpt>
      <trkpt lat="59.9770897" lon="17.7393227">
        <ele>38.5901</ele>
        <time>2013-05-13T17:50:27Z</time>
      </trkpt>
      <trkpt lat="59.9770745" lon="17.7393323">
        <ele>38.5901</ele>
        <time>2013-05-13T17:50:28Z</time>
      </trkpt>
      <trkpt lat="59.9770599" lon="17.7393455">
        <ele>38.5901</ele>
        <time>2013-05-13T17:50:29Z</time>
      </trkpt>
      <trkpt lat="59.9770464" lon="17.7393553">
        <ele>38.5901</ele>
        <time>2013-05-13T17:50:30Z</time>
      </trkpt>
      <trkpt lat="59.9770335" lon="17.7393595">
        <ele>38.5901</ele>
        <time>2013-05-13T17:50:31Z</time>
      </trkpt>
      <trkpt lat="59.9770199" lon="17.7393614">
        <ele>38.1094</ele>
        <time>2013-05-13T17:50:32Z</time>
      </trkpt>
      <trkpt lat="59.9770058" lon="17.7393627">
        <ele>38.1094</ele>
        <time>2013-05-13T17:50:33Z</time>
      </trkpt>
      <trkpt lat="59.9769941" lon="17.7393673">
        <ele>38.1094</ele>
        <time>2013-05-13T17:50:34Z</time>
      </trkpt>
      <trkpt lat="59.9769797" lon="17.7393594">
        <ele>38.1094</ele>
        <time>2013-05-13T17:50:35Z</time>
      </trkpt>
      <trkpt lat="59.9769729" lon="17.7393625">
        <ele>38.1094</ele>
        <time>2013-05-13T17:50:36Z</time>
      </trkpt>
      <trkpt lat="59.9769629" lon="17.7393662">
        <ele>38.1094</ele>
        <time>2013-05-13T17:50:37Z</time>
      </trkpt>
      <trkpt lat="59.9769478" lon="17.7393631">
        <ele>37.6287</ele>
        <time>2013-05-13T17:50:38Z</time>
      </trkpt>
      <trkpt lat="59.9769334" lon="17.7393652">
        <ele>37.6287</ele>
        <time>2013-05-13T17:50:39Z</time>
      </trkpt>
      <trkpt lat="59.9769204" lon="17.7393736">
        <ele>37.6287</ele>
        <time>2013-05-13T17:50:40Z</time>
      </trkpt>
      <trkpt lat="59.9769074" lon="17.7393838">
        <ele>37.1481</ele>
        <time>2013-05-13T17:50:41Z</time>
      </trkpt>
      <trkpt lat="59.9768932" lon="17.7393905">
        <ele>37.1481</ele>
        <time>2013-05-13T17:50:42Z</time>
      </trkpt>
      <trkpt lat="59.9768788" lon="17.7394005">
        <ele>37.1481</ele>
        <time>2013-05-13T17:50:43Z</time>
      </trkpt>
      <trkpt lat="59.976865" lon="17.7394103">
        <ele>37.1481</ele>
        <time>2013-05-13T17:50:44Z</time>
      </trkpt>
      <trkpt lat="59.9768519" lon="17.7394232">
        <ele>37.6287</ele>
        <time>2013-05-13T17:50:45Z</time>
      </trkpt>
      <trkpt lat="59.9768392" lon="17.7394342">
        <ele>38.1094</ele>
        <time>2013-05-13T17:50:46Z</time>
      </trkpt>
      <trkpt lat="59.976823" lon="17.7394419">
        <ele>37.6287</ele>
        <time>2013-05-13T17:50:47Z</time>
      </trkpt>
      <trkpt lat="59.976805" lon="17.7394424">
        <ele>37.6287</ele>
        <time>2013-05-13T17:50:48Z</time>
      </trkpt>
      <trkpt lat="59.9767889" lon="17.7394471">
        <ele>37.6287</ele>
        <time>2013-05-13T17:50:49Z</time>
      </trkpt>
      <trkpt lat="59.9767744" lon="17.7394536">
        <ele>37.1481</ele>
        <time>2013-05-13T17:50:50Z</time>
      </trkpt>
      <trkpt lat="59.9767607" lon="17.7394591">
        <ele>37.1481</ele>
        <time>2013-05-13T17:50:51Z</time>
      </trkpt>
      <trkpt lat="59.9767437" lon="17.7394594">
        <ele>36.6675</ele>
        <time>2013-05-13T17:50:52Z</time>
      </trkpt>
      <trkpt lat="59.9767287" lon="17.7394621">
        <ele>36.6675</ele>
        <time>2013-05-13T17:50:53Z</time>
      </trkpt>
      <trkpt lat="59.9767132" lon="17.7394631">
        <ele>36.1868</ele>
        <time>2013-05-13T17:50:54Z</time>
      </trkpt>
      <trkpt lat="59.9766991" lon="17.7394691">
        <ele>36.1868</ele>
        <time>2013-05-13T17:50:55Z</time>
      </trkpt>
      <trkpt lat="59.9766836" lon="17.7394759">
        <ele>35.7061</ele>
        <time>2013-05-13T17:50:56Z</time>
      </trkpt>
      <trkpt lat="59.9766677" lon="17.7394828">
        <ele>35.7061</ele>
        <time>2013-05-13T17:50:57Z</time>
      </trkpt>
      <trkpt lat="59.9766525" lon="17.7394936">
        <ele>35.7061</ele>
        <time>2013-05-13T17:50:58Z</time>
      </trkpt>
      <trkpt lat="59.9766396" lon="17.7395041">
        <ele>35.7061</ele>
        <time>2013-05-13T17:50:59Z</time>
      </trkpt>
      <trkpt lat="59.9766282" lon="17.7395133">
        <ele>35.7061</ele>
        <time>2013-05-13T17:51:00Z</time>
      </trkpt>
      <trkpt lat="59.9766149" lon="17.7395228">
        <ele>35.7061</ele>
        <time>2013-05-13T17:51:01Z</time>
      </trkpt>
      <trkpt lat="59.9765992" lon="17.7395304">
        <ele>35.7061</ele>
        <time>2013-05-13T17:51:02Z</time>
      </trkpt>
      <trkpt lat="59.9765852" lon="17.7395387">
        <ele>35.2255</ele>
        <time>2013-05-13T17:51:03Z</time>
      </trkpt>
      <trkpt lat="59.9765724" lon="17.7395491">
        <ele>35.2255</ele>
        <time>2013-05-13T17:51:04Z</time>
      </trkpt>
      <trkpt lat="59.9765573" lon="17.739563">
        <ele>35.2255</ele>
        <time>2013-05-13T17:51:05Z</time>
      </trkpt>
      <trkpt lat="59.9765434" lon="17.739581">
        <ele>35.2255</ele>
        <time>2013-05-13T17:51:06Z</time>
      </trkpt>
      <trkpt lat="59.976531" lon="17.7395905">
        <ele>35.2255</ele>
        <time>2013-05-13T17:51:07Z</time>
      </trkpt>
      <trkpt lat="59.9765191" lon="17.7395993">
        <ele>35.2255</ele>
        <time>2013-05-13T17:51:08Z</time>
      </trkpt>
      <trkpt lat="59.9765076" lon="17.7396113">
        <ele>35.2255</ele>
        <time>2013-05-13T17:51:09Z</time>
      </trkpt>
      <trkpt lat="59.9764952" lon="17.7396252">
        <ele>35.2255</ele>
        <time>2013-05-13T17:51:10Z</time>
      </trkpt>
      <trkpt lat="59.9764827" lon="17.7396414">
        <ele>35.2255</ele>
        <time>2013-05-13T17:51:11Z</time>
      </trkpt>
      <trkpt lat="59.9764699" lon="17.7396557">
        <ele>35.2255</ele>
        <time>2013-05-13T17:51:12Z</time>
      </trkpt>
      <trkpt lat="59.9764593" lon="17.7396693">
        <ele>35.2255</ele>
        <time>2013-05-13T17:51:13Z</time>
      </trkpt>
      <trkpt lat="59.9764494" lon="17.7396858">
        <ele>35.2255</ele>
        <time>2013-05-13T17:51:14Z</time>
      </trkpt>
      <trkpt lat="59.9764408" lon="17.7397077">
        <ele>35.2255</ele>
        <time>2013-05-13T17:51:15Z</time>
      </trkpt>
      <trkpt lat="59.9764336" lon="17.7397324">
        <ele>34.7449</ele>
        <time>2013-05-13T17:51:16Z</time>
      </trkpt>
      <trkpt lat="59.9764247" lon="17.7397551">
        <ele>34.7449</ele>
        <time>2013-05-13T17:51:17Z</time>
      </trkpt>
      <trkpt lat="59.9764143" lon="17.7397719">
        <ele>35.2255</ele>
        <time>2013-05-13T17:51:18Z</time>
      </trkpt>
      <trkpt lat="59.9764046" lon="17.7397889">
        <ele>35.2255</ele>
        <time>2013-05-13T17:51:19Z</time>
      </trkpt>
      <trkpt lat="59.9763937" lon="17.7398011">
        <ele>34.7449</ele>
        <time>2013-05-13T17:51:20Z</time>
      </trkpt>
      <trkpt lat="59.9763822" lon="17.7398158">
        <ele>34.7449</ele>
        <time>2013-05-13T17:51:21Z</time>
      </trkpt>
      <trkpt lat="59.9763743" lon="17.7398319">
        <ele>34.7449</ele>
        <time>2013-05-13T17:51:22Z</time>
      </trkpt>
      <trkpt lat="59.9763673" lon="17.7398494">
        <ele>34.2642</ele>
        <time>2013-05-13T17:51:23Z</time>
      </trkpt>
      <trkpt lat="59.9763591" lon="17.7398676">
        <ele>34.2642</ele>
        <time>2013-05-13T17:51:24Z</time>
      </trkpt>
      <trkpt lat="59.9763507" lon="17.7398914">
        <ele>34.2642</ele>
        <time>2013-05-13T17:51:25Z</time>
      </trkpt>
      <trkpt lat="59.9763408" lon="17.7399018">
        <ele>34.2642</ele>
        <time>2013-05-13T17:51:26Z</time>
      </trkpt>
      <trkpt lat="59.9763313" lon="17.7399143">
        <ele>34.2642</ele>
        <time>2013-05-13T17:51:27Z</time>
      </trkpt>
      <trkpt lat="59.9763236" lon="17.7399346">
        <ele>33.7834</ele>
        <time>2013-05-13T17:51:28Z</time>
      </trkpt>
      <trkpt lat="59.9763145" lon="17.7399603">
        <ele>33.7834</ele>
        <time>2013-05-13T17:51:29Z</time>
      </trkpt>
      <trkpt lat="59.9763073" lon="17.7399847">
        <ele>33.7834</ele>
        <time>2013-05-13T17:51:30Z</time>
      </trkpt>
      <trkpt lat="59.9763007" lon="17.7400039">
        <ele>33.7834</ele>
        <time>2013-05-13T17:51:31Z</time>
      </trkpt>
      <trkpt lat="59.976293" lon="17.7400235">
        <ele>33.7834</ele>
        <time>2013-05-13T17:51:32Z</time>
      </trkpt>
      <trkpt lat="59.9762854" lon="17.7400427">
        <ele>33.7834</ele>
        <time>2013-05-13T17:51:33Z</time>
      </trkpt>
      <trkpt lat="59.9762818" lon="17.7400603">
        <ele>34.2642</ele>
        <time>2013-05-13T17:51:34Z</time>
      </trkpt>
      <trkpt lat="59.9762771" lon="17.740079">
        <ele>34.2642</ele>
        <time>2013-05-13T17:51:35Z</time>
      </trkpt>
      <trkpt lat="59.9762694" lon="17.7401029">
        <ele>34.2642</ele>
        <time>2013-05-13T17:51:36Z</time>
      </trkpt>
      <trkpt lat="59.9762574" lon="17.7401394">
        <ele>33.7834</ele>
        <time>2013-05-13T17:51:37Z</time>
      </trkpt>
      <trkpt lat="59.9762413" lon="17.7401774">
        <ele>33.3029</ele>
        <time>2013-05-13T17:51:38Z</time>
      </trkpt>
      <trkpt lat="59.9762272" lon="17.7402059">
        <ele>33.3029</ele>
        <time>2013-05-13T17:51:39Z</time>
      </trkpt>
      <trkpt lat="59.9762182" lon="17.7401992">
        <ele>32.3416</ele>
        <time>2013-05-13T17:51:40Z</time>
      </trkpt>
      <trkpt lat="59.9762127" lon="17.7401789">
        <ele>31.8607</ele>
        <time>2013-05-13T17:51:41Z</time>
      </trkpt>
      <trkpt lat="59.9762129" lon="17.7401493">
        <ele>31.8607</ele>
        <time>2013-05-13T17:51:42Z</time>
      </trkpt>
      <trkpt lat="59.9762155" lon="17.7401169">
        <ele>31.3801</ele>
        <time>2013-05-13T17:51:43Z</time>
      </trkpt>
      <trkpt lat="59.9762197" lon="17.7400857">
        <ele>31.3801</ele>
        <time>2013-05-13T17:51:44Z</time>
      </trkpt>
      <trkpt lat="59.976223" lon="17.740056">
        <ele>31.3801</ele>
        <time>2013-05-13T17:51:45Z</time>
      </trkpt>
      <trkpt lat="59.9762264" lon="17.7400272">
        <ele>31.3801</ele>
        <time>2013-05-13T17:51:46Z</time>
      </trkpt>
      <trkpt lat="59.9762305" lon="17.7399986">
        <ele>31.3801</ele>
        <time>2013-05-13T17:51:47Z</time>
      </trkpt>
      <trkpt lat="59.9762332" lon="17.7399712">
        <ele>31.3801</ele>
        <time>2013-05-13T17:51:48Z</time>
      </trkpt>
      <trkpt lat="59.9762345" lon="17.7399437">
        <ele>31.3801</ele>
        <time>2013-05-13T17:51:49Z</time>
      </trkpt>
      <trkpt lat="59.976234" lon="17.7399178">
        <ele>30.8995</ele>
        <time>2013-05-13T17:51:50Z</time>
      </trkpt>
      <trkpt lat="59.9762315" lon="17.739893">
        <ele>30.8995</ele>
        <time>2013-05-13T17:51:51Z</time>
      </trkpt>
      <trkpt lat="59.9762258" lon="17.7398693">
        <ele>30.8995</ele>
        <time>2013-05-13T17:51:52Z</time>
      </trkpt>
      <trkpt lat="59.9762203" lon="17.7398485">
        <ele>30.4188</ele>
        <time>2013-05-13T17:51:53Z</time>
      </trkpt>
      <trkpt lat="59.9762144" lon="17.7398277">
        <ele>30.8995</ele>
        <time>2013-05-13T17:51:54Z</time>
      </trkpt>
      <trkpt lat="59.9762077" lon="17.7398079">
        <ele>30.4188</ele>
        <time>2013-05-13T17:51:55Z</time>
      </trkpt>
      <trkpt lat="59.9761993" lon="17.7397887">
        <ele>30.4188</ele>
        <time>2013-05-13T17:51:56Z</time>
      </trkpt>
      <trkpt lat="59.9761901" lon="17.7397696">
        <ele>30.4188</ele>
        <time>2013-05-13T17:51:57Z</time>
      </trkpt>
      <trkpt lat="59.9761821" lon="17.7397484">
        <ele>30.8995</ele>
        <time>2013-05-13T17:51:58Z</time>
      </trkpt>
      <trkpt lat="59.9761728" lon="17.7397288">
        <ele>30.8995</ele>
        <time>2013-05-13T17:51:59Z</time>
      </trkpt>
      <trkpt lat="59.9761616" lon="17.7397107">
        <ele>31.3801</ele>
        <time>2013-05-13T17:52:00Z</time>
      </trkpt>
      <trkpt lat="59.9761507" lon="17.7396963">
        <ele>31.3801</ele>
        <time>2013-05-13T17:52:01Z</time>
      </trkpt>
      <trkpt lat="59.9761391" lon="17.7396797">
        <ele>31.3801</ele>
        <time>2013-05-13T17:52:02Z</time>
      </trkpt>
      <trkpt lat="59.9761275" lon="17.7396639">
        <ele>31.3801</ele>
        <time>2013-05-13T17:52:03Z</time>
      </trkpt>
      <trkpt lat="59.9761169" lon="17.7396475">
        <ele>31.3801</ele>
        <time>2013-05-13T17:52:04Z</time>
      </trkpt>
      <trkpt lat="59.9761071" lon="17.7396305">
        <ele>31.3801</ele>
        <time>2013-05-13T17:52:05Z</time>
      </trkpt>
      <trkpt lat="59.9760962" lon="17.7396113">
        <ele>31.3801</ele>
        <time>2013-05-13T17:52:06Z</time>
      </trkpt>
      <trkpt lat="59.9760891" lon="17.7396061">
        <ele>31.3801</ele>
        <time>2013-05-13T17:52:07Z</time>
      </trkpt>
      <trkpt lat="59.9760803" lon="17.739596">
        <ele>30.8995</ele>
        <time>2013-05-13T17:52:08Z</time>
      </trkpt>
      <trkpt lat="59.9760709" lon="17.7395769">
        <ele>30.8995</ele>
        <time>2013-05-13T17:52:09Z</time>
      </trkpt>
      <trkpt lat="59.9760607" lon="17.7395579">
        <ele>30.8995</ele>
        <time>2013-05-13T17:52:10Z</time>
      </trkpt>
      <trkpt lat="59.9760501" lon="17.7395376">
        <ele>30.8995</ele>
        <time>2013-05-13T17:52:11Z</time>
      </trkpt>
      <trkpt lat="59.9760392" lon="17.7395143">
        <ele>30.8995</ele>
        <time>2013-05-13T17:52:12Z</time>
      </trkpt>
      <trkpt lat="59.976028" lon="17.7394921">
        <ele>30.8995</ele>
        <time>2013-05-13T17:52:13Z</time>
      </trkpt>
      <trkpt lat="59.9760176" lon="17.7394743">
        <ele>30.8995</ele>
        <time>2013-05-13T17:52:14Z</time>
      </trkpt>
      <trkpt lat="59.9760065" lon="17.7394543">
        <ele>30.8995</ele>
        <time>2013-05-13T17:52:15Z</time>
      </trkpt>
      <trkpt lat="59.9759982" lon="17.7394382">
        <ele>30.8995</ele>
        <time>2013-05-13T17:52:16Z</time>
      </trkpt>
      <trkpt lat="59.9759886" lon="17.7394223">
        <ele>30.8995</ele>
        <time>2013-05-13T17:52:17Z</time>
      </trkpt>
      <trkpt lat="59.9759797" lon="17.739404">
        <ele>30.8995</ele>
        <time>2013-05-13T17:52:18Z</time>
      </trkpt>
      <trkpt lat="59.9759693" lon="17.7393823">
        <ele>30.8995</ele>
        <time>2013-05-13T17:52:19Z</time>
      </trkpt>
      <trkpt lat="59.9759579" lon="17.739362">
        <ele>30.8995</ele>
        <time>2013-05-13T17:52:20Z</time>
      </trkpt>
      <trkpt lat="59.9759491" lon="17.7393438">
        <ele>30.4188</ele>
        <time>2013-05-13T17:52:21Z</time>
      </trkpt>
      <trkpt lat="59.9759405" lon="17.7393253">
        <ele>30.4188</ele>
        <time>2013-05-13T17:52:22Z</time>
      </trkpt>
      <trkpt lat="59.9759307" lon="17.739308">
        <ele>30.4188</ele>
        <time>2013-05-13T17:52:23Z</time>
      </trkpt>
      <trkpt lat="59.9759196" lon="17.7392914">
        <ele>30.8995</ele>
        <time>2013-05-13T17:52:24Z</time>
      </trkpt>
      <trkpt lat="59.9759081" lon="17.7392759">
        <ele>30.8995</ele>
        <time>2013-05-13T17:52:25Z</time>
      </trkpt>
      <trkpt lat="59.9758967" lon="17.7392573">
        <ele>30.8995</ele>
        <time>2013-05-13T17:52:26Z</time>
      </trkpt>
      <trkpt lat="59.9758871" lon="17.7392365">
        <ele>30.8995</ele>
        <time>2013-05-13T17:52:27Z</time>
      </trkpt>
      <trkpt lat="59.9758783" lon="17.7392168">
        <ele>31.3801</ele>
        <time>2013-05-13T17:52:28Z</time>
      </trkpt>
      <trkpt lat="59.9758674" lon="17.7392011">
        <ele>31.3801</ele>
        <time>2013-05-13T17:52:29Z</time>
      </trkpt>
      <trkpt lat="59.9758566" lon="17.7391863">
        <ele>31.3801</ele>
        <time>2013-05-13T17:52:30Z</time>
      </trkpt>
      <trkpt lat="59.9758475" lon="17.7391683">
        <ele>31.3801</ele>
        <time>2013-05-13T17:52:31Z</time>
      </trkpt>
      <trkpt lat="59.9758398" lon="17.7391482">
        <ele>31.3801</ele>
        <time>2013-05-13T17:52:32Z</time>
      </trkpt>
      <trkpt lat="59.9758326" lon="17.7391275">
        <ele>31.3801</ele>
        <time>2013-05-13T17:52:33Z</time>
      </trkpt>
      <trkpt lat="59.9758244" lon="17.7391088">
        <ele>31.3801</ele>
        <time>2013-05-13T17:52:34Z</time>
      </trkpt>
      <trkpt lat="59.9758157" lon="17.7390899">
        <ele>31.3801</ele>
        <time>2013-05-13T17:52:35Z</time>
      </trkpt>
      <trkpt lat="59.9758073" lon="17.7390704">
        <ele>31.3801</ele>
        <time>2013-05-13T17:52:36Z</time>
      </trkpt>
      <trkpt lat="59.9757985" lon="17.7390516">
        <ele>31.3801</ele>
        <time>2013-05-13T17:52:37Z</time>
      </trkpt>
      <trkpt lat="59.9757887" lon="17.7390331">
        <ele>31.3801</ele>
        <time>2013-05-13T17:52:38Z</time>
      </trkpt>
      <trkpt lat="59.9757798" lon="17.7390143">
        <ele>30.8995</ele>
        <time>2013-05-13T17:52:39Z</time>
      </trkpt>
      <trkpt lat="59.9757708" lon="17.7389951">
        <ele>30.8995</ele>
        <time>2013-05-13T17:52:40Z</time>
      </trkpt>
      <trkpt lat="59.9757605" lon="17.7389765">
        <ele>30.8995</ele>
        <time>2013-05-13T17:52:41Z</time>
      </trkpt>
      <trkpt lat="59.9757496" lon="17.738958">
        <ele>30.8995</ele>
        <time>2013-05-13T17:52:42Z</time>
      </trkpt>
      <trkpt lat="59.9757387" lon="17.7389384">
        <ele>30.8995</ele>
        <time>2013-05-13T17:52:43Z</time>
      </trkpt>
      <trkpt lat="59.975727" lon="17.7389171">
        <ele>30.8995</ele>
        <time>2013-05-13T17:52:44Z</time>
      </trkpt>
      <trkpt lat="59.9757173" lon="17.7388983">
        <ele>30.8995</ele>
        <time>2013-05-13T17:52:45Z</time>
      </trkpt>
      <trkpt lat="59.9757068" lon="17.7388792">
        <ele>30.8995</ele>
        <time>2013-05-13T17:52:46Z</time>
      </trkpt>
      <trkpt lat="59.9756954" lon="17.7388606">
        <ele>30.8995</ele>
        <time>2013-05-13T17:52:47Z</time>
      </trkpt>
      <trkpt lat="59.9756844" lon="17.7388426">
        <ele>30.8995</ele>
        <time>2013-05-13T17:52:48Z</time>
      </trkpt>
      <trkpt lat="59.9756726" lon="17.7388229">
        <ele>30.8995</ele>
        <time>2013-05-13T17:52:49Z</time>
      </trkpt>
      <trkpt lat="59.9756602" lon="17.738801">
        <ele>30.4188</ele>
        <time>2013-05-13T17:52:50Z</time>
      </trkpt>
      <trkpt lat="59.9756503" lon="17.7387833">
        <ele>30.4188</ele>
        <time>2013-05-13T17:52:51Z</time>
      </trkpt>
      <trkpt lat="59.9756384" lon="17.7387646">
        <ele>29.9381</ele>
        <time>2013-05-13T17:52:52Z</time>
      </trkpt>
      <trkpt lat="59.9756261" lon="17.7387457">
        <ele>29.9381</ele>
        <time>2013-05-13T17:52:53Z</time>
      </trkpt>
      <trkpt lat="59.9756149" lon="17.7387294">
        <ele>29.9381</ele>
        <time>2013-05-13T17:52:54Z</time>
      </trkpt>
      <trkpt lat="59.9756046" lon="17.738712">
        <ele>29.4575</ele>
        <time>2013-05-13T17:52:55Z</time>
      </trkpt>
      <trkpt lat="59.9755943" lon="17.7386942">
        <ele>29.4575</ele>
        <time>2013-05-13T17:52:56Z</time>
      </trkpt>
      <trkpt lat="59.9755835" lon="17.7386758">
        <ele>29.4575</ele>
        <time>2013-05-13T17:52:57Z</time>
      </trkpt>
      <trkpt lat="59.9755729" lon="17.7386551">
        <ele>29.4575</ele>
        <time>2013-05-13T17:52:58Z</time>
      </trkpt>
      <trkpt lat="59.9755626" lon="17.7386389">
        <ele>29.4575</ele>
        <time>2013-05-13T17:52:59Z</time>
      </trkpt>
      <trkpt lat="59.9755519" lon="17.7386239">
        <ele>29.4575</ele>
        <time>2013-05-13T17:53:00Z</time>
      </trkpt>
      <trkpt lat="59.9755405" lon="17.7386061">
        <ele>28.9769</ele>
        <time>2013-05-13T17:53:01Z</time>
      </trkpt>
      <trkpt lat="59.9755296" lon="17.7385886">
        <ele>28.9769</ele>
        <time>2013-05-13T17:53:02Z</time>
      </trkpt>
      <trkpt lat="59.9755177" lon="17.738569">
        <ele>28.9769</ele>
        <time>2013-05-13T17:53:03Z</time>
      </trkpt>
      <trkpt lat="59.9755083" lon="17.7385545">
        <ele>28.9769</ele>
        <time>2013-05-13T17:53:04Z</time>
      </trkpt>
      <trkpt lat="59.9754974" lon="17.7385373">
        <ele>28.4962</ele>
        <time>2013-05-13T17:53:05Z</time>
      </trkpt>
      <trkpt lat="59.9754856" lon="17.7385172">
        <ele>28.4962</ele>
        <time>2013-05-13T17:53:06Z</time>
      </trkpt>
      <trkpt lat="59.9754737" lon="17.7384964">
        <ele>28.9769</ele>
        <time>2013-05-13T17:53:07Z</time>
      </trkpt>
      <trkpt lat="59.9754621" lon="17.7384757">
        <ele>28.9769</ele>
        <time>2013-05-13T17:53:08Z</time>
      </trkpt>
      <trkpt lat="59.9754507" lon="17.738455">
        <ele>28.9769</ele>
        <time>2013-05-13T17:53:09Z</time>
      </trkpt>
      <trkpt lat="59.975439" lon="17.7384346">
        <ele>28.9769</ele>
        <time>2013-05-13T17:53:10Z</time>
      </trkpt>
      <trkpt lat="59.9754275" lon="17.7384151">
        <ele>28.9769</ele>
        <time>2013-05-13T17:53:11Z</time>
      </trkpt>
      <trkpt lat="59.9754162" lon="17.7383959">
        <ele>28.9769</ele>
        <time>2013-05-13T17:53:12Z</time>
      </trkpt>
      <trkpt lat="59.9754058" lon="17.7383771">
        <ele>28.9769</ele>
        <time>2013-05-13T17:53:13Z</time>
      </trkpt>
      <trkpt lat="59.9753951" lon="17.7383575">
        <ele>28.9769</ele>
        <time>2013-05-13T17:53:14Z</time>
      </trkpt>
      <trkpt lat="59.9753841" lon="17.7383375">
        <ele>28.9769</ele>
        <time>2013-05-13T17:53:15Z</time>
      </trkpt>
      <trkpt lat="59.9753723" lon="17.7383188">
        <ele>28.9769</ele>
        <time>2013-05-13T17:53:16Z</time>
      </trkpt>
      <trkpt lat="59.9753617" lon="17.7383003">
        <ele>28.9769</ele>
        <time>2013-05-13T17:53:17Z</time>
      </trkpt>
      <trkpt lat="59.9753512" lon="17.738281">
        <ele>28.9769</ele>
        <time>2013-05-13T17:53:18Z</time>
      </trkpt>
      <trkpt lat="59.9753406" lon="17.7382606">
        <ele>29.4575</ele>
        <time>2013-05-13T17:53:19Z</time>
      </trkpt>
      <trkpt lat="59.9753298" lon="17.7382421">
        <ele>29.4575</ele>
        <time>2013-05-13T17:53:20Z</time>
      </trkpt>
      <trkpt lat="59.9753176" lon="17.7382281">
        <ele>29.4575</ele>
        <time>2013-05-13T17:53:21Z</time>
      </trkpt>
      <trkpt lat="59.9753048" lon="17.7382114">
        <ele>29.4575</ele>
        <time>2013-05-13T17:53:22Z</time>
      </trkpt>
      <trkpt lat="59.9752922" lon="17.7381935">
        <ele>29.4575</ele>
        <time>2013-05-13T17:53:23Z</time>
      </trkpt>
      <trkpt lat="59.9752811" lon="17.7381748">
        <ele>29.4575</ele>
        <time>2013-05-13T17:53:24Z</time>
      </trkpt>
      <trkpt lat="59.9752711" lon="17.7381545">
        <ele>29.9381</ele>
        <time>2013-05-13T17:53:25Z</time>
      </trkpt>
      <trkpt lat="59.9752598" lon="17.7381355">
        <ele>29.9381</ele>
        <time>2013-05-13T17:53:26Z</time>
      </trkpt>
      <trkpt lat="59.9752482" lon="17.7381156">
        <ele>29.9381</ele>
        <time>2013-05-13T17:53:27Z</time>
      </trkpt>
      <trkpt lat="59.9752375" lon="17.7380972">
        <ele>29.9381</ele>
        <time>2013-05-13T17:53:28Z</time>
      </trkpt>
      <trkpt lat="59.975227" lon="17.7380795">
        <ele>29.9381</ele>
        <time>2013-05-13T17:53:29Z</time>
      </trkpt>
      <trkpt lat="59.9752162" lon="17.7380598">
        <ele>30.4188</ele>
        <time>2013-05-13T17:53:30Z</time>
      </trkpt>
      <trkpt lat="59.975206" lon="17.7380384">
        <ele>30.4188</ele>
        <time>2013-05-13T17:53:31Z</time>
      </trkpt>
      <trkpt lat="59.975197" lon="17.7380194">
        <ele>29.9381</ele>
        <time>2013-05-13T17:53:32Z</time>
      </trkpt>
      <trkpt lat="59.9751878" lon="17.7380044">
        <ele>29.9381</ele>
        <time>2013-05-13T17:53:33Z</time>
      </trkpt>
      <trkpt lat="59.9751764" lon="17.7379892">
        <ele>29.9381</ele>
        <time>2013-05-13T17:53:34Z</time>
      </trkpt>
      <trkpt lat="59.9751638" lon="17.7379747">
        <ele>29.9381</ele>
        <time>2013-05-13T17:53:35Z</time>
      </trkpt>
      <trkpt lat="59.975152" lon="17.7379576">
        <ele>29.9381</ele>
        <time>2013-05-13T17:53:36Z</time>
      </trkpt>
      <trkpt lat="59.9751389" lon="17.7379369">
        <ele>29.9381</ele>
        <time>2013-05-13T17:53:37Z</time>
      </trkpt>
      <trkpt lat="59.9751269" lon="17.7379154">
        <ele>29.9381</ele>
        <time>2013-05-13T17:53:38Z</time>
      </trkpt>
      <trkpt lat="59.9751167" lon="17.737897">
        <ele>29.9381</ele>
        <time>2013-05-13T17:53:39Z</time>
      </trkpt>
      <trkpt lat="59.9751062" lon="17.7378791">
        <ele>29.9381</ele>
        <time>2013-05-13T17:53:40Z</time>
      </trkpt>
      <trkpt lat="59.9750954" lon="17.7378584">
        <ele>29.9381</ele>
        <time>2013-05-13T17:53:41Z</time>
      </trkpt>
      <trkpt lat="59.9750847" lon="17.7378381">
        <ele>29.9381</ele>
        <time>2013-05-13T17:53:42Z</time>
      </trkpt>
      <trkpt lat="59.9750742" lon="17.7378206">
        <ele>29.9381</ele>
        <time>2013-05-13T17:53:43Z</time>
      </trkpt>
      <trkpt lat="59.9750639" lon="17.737804">
        <ele>29.9381</ele>
        <time>2013-05-13T17:53:44Z</time>
      </trkpt>
      <trkpt lat="59.975054" lon="17.7377871">
        <ele>29.9381</ele>
        <time>2013-05-13T17:53:45Z</time>
      </trkpt>
      <trkpt lat="59.9750438" lon="17.7377692">
        <ele>29.9381</ele>
        <time>2013-05-13T17:53:46Z</time>
      </trkpt>
      <trkpt lat="59.975033" lon="17.7377499">
        <ele>29.9381</ele>
        <time>2013-05-13T17:53:47Z</time>
      </trkpt>
      <trkpt lat="59.9750218" lon="17.7377303">
        <ele>29.9381</ele>
        <time>2013-05-13T17:53:48Z</time>
      </trkpt>
      <trkpt lat="59.9750104" lon="17.7377105">
        <ele>29.9381</ele>
        <time>2013-05-13T17:53:49Z</time>
      </trkpt>
      <trkpt lat="59.9749988" lon="17.7376921">
        <ele>29.9381</ele>
        <time>2013-05-13T17:53:50Z</time>
      </trkpt>
      <trkpt lat="59.9749868" lon="17.7376753">
        <ele>29.9381</ele>
        <time>2013-05-13T17:53:51Z</time>
      </trkpt>
      <trkpt lat="59.9749752" lon="17.7376557">
        <ele>29.9381</ele>
        <time>2013-05-13T17:53:52Z</time>
      </trkpt>
      <trkpt lat="59.9749665" lon="17.7376359">
        <ele>29.9381</ele>
        <time>2013-05-13T17:53:53Z</time>
      </trkpt>
      <trkpt lat="59.9749576" lon="17.7376164">
        <ele>29.9381</ele>
        <time>2013-05-13T17:53:54Z</time>
      </trkpt>
      <trkpt lat="59.9749465" lon="17.737596">
        <ele>29.9381</ele>
        <time>2013-05-13T17:53:55Z</time>
      </trkpt>
      <trkpt lat="59.9749349" lon="17.7375786">
        <ele>29.9381</ele>
        <time>2013-05-13T17:53:56Z</time>
      </trkpt>
      <trkpt lat="59.974923" lon="17.7375631">
        <ele>29.9381</ele>
        <time>2013-05-13T17:53:57Z</time>
      </trkpt>
      <trkpt lat="59.9749117" lon="17.7375454">
        <ele>29.9381</ele>
        <time>2013-05-13T17:53:58Z</time>
      </trkpt>
      <trkpt lat="59.9749018" lon="17.7375257">
        <ele>29.9381</ele>
        <time>2013-05-13T17:53:59Z</time>
      </trkpt>
      <trkpt lat="59.9748923" lon="17.7375055">
        <ele>29.9381</ele>
        <time>2013-05-13T17:54:00Z</time>
      </trkpt>
      <trkpt lat="59.9748827" lon="17.7374859">
        <ele>29.4575</ele>
        <time>2013-05-13T17:54:01Z</time>
      </trkpt>
      <trkpt lat="59.9748739" lon="17.7374662">
        <ele>29.4575</ele>
        <time>2013-05-13T17:54:02Z</time>
      </trkpt>
      <trkpt lat="59.9748661" lon="17.737446">
        <ele>29.4575</ele>
        <time>2013-05-13T17:54:03Z</time>
      </trkpt>
      <trkpt lat="59.9748582" lon="17.7374262">
        <ele>29.4575</ele>
        <time>2013-05-13T17:54:04Z</time>
      </trkpt>
      <trkpt lat="59.9748496" lon="17.7374061">
        <ele>28.9769</ele>
        <time>2013-05-13T17:54:05Z</time>
      </trkpt>
      <trkpt lat="59.9748405" lon="17.7373842">
        <ele>28.9769</ele>
        <time>2013-05-13T17:54:06Z</time>
      </trkpt>
      <trkpt lat="59.9748303" lon="17.737359">
        <ele>28.9769</ele>
        <time>2013-05-13T17:54:07Z</time>
      </trkpt>
      <trkpt lat="59.9748219" lon="17.7373361">
        <ele>28.9769</ele>
        <time>2013-05-13T17:54:08Z</time>
      </trkpt>
      <trkpt lat="59.9748127" lon="17.7373135">
        <ele>28.9769</ele>
        <time>2013-05-13T17:54:09Z</time>
      </trkpt>
      <trkpt lat="59.974804" lon="17.7372919">
        <ele>28.9769</ele>
        <time>2013-05-13T17:54:10Z</time>
      </trkpt>
      <trkpt lat="59.9747956" lon="17.7372704">
        <ele>28.9769</ele>
        <time>2013-05-13T17:54:11Z</time>
      </trkpt>
      <trkpt lat="59.9747866" lon="17.737249">
        <ele>28.9769</ele>
        <time>2013-05-13T17:54:12Z</time>
      </trkpt>
      <trkpt lat="59.97478" lon="17.7372252">
        <ele>28.9769</ele>
        <time>2013-05-13T17:54:13Z</time>
      </trkpt>
      <trkpt lat="59.9747739" lon="17.7372009">
        <ele>28.9769</ele>
        <time>2013-05-13T17:54:14Z</time>
      </trkpt>
      <trkpt lat="59.9747666" lon="17.7371812">
        <ele>28.9769</ele>
        <time>2013-05-13T17:54:15Z</time>
      </trkpt>
      <trkpt lat="59.9747592" lon="17.737161">
        <ele>28.4962</ele>
        <time>2013-05-13T17:54:16Z</time>
      </trkpt>
      <trkpt lat="59.9747516" lon="17.7371388">
        <ele>28.4962</ele>
        <time>2013-05-13T17:54:17Z</time>
      </trkpt>
      <trkpt lat="59.9747436" lon="17.7371149">
        <ele>28.4962</ele>
        <time>2013-05-13T17:54:18Z</time>
      </trkpt>
      <trkpt lat="59.9747366" lon="17.7370921">
        <ele>28.4962</ele>
        <time>2013-05-13T17:54:19Z</time>
      </trkpt>
      <trkpt lat="59.9747301" lon="17.7370703">
        <ele>28.4962</ele>
        <time>2013-05-13T17:54:20Z</time>
      </trkpt>
      <trkpt lat="59.9747221" lon="17.7370471">
        <ele>28.4962</ele>
        <time>2013-05-13T17:54:21Z</time>
      </trkpt>
      <trkpt lat="59.9747143" lon="17.7370229">
        <ele>28.4962</ele>
        <time>2013-05-13T17:54:22Z</time>
      </trkpt>
      <trkpt lat="59.974706" lon="17.7369995">
        <ele>28.4962</ele>
        <time>2013-05-13T17:54:23Z</time>
      </trkpt>
      <trkpt lat="59.9746972" lon="17.7369761">
        <ele>28.4962</ele>
        <time>2013-05-13T17:54:24Z</time>
      </trkpt>
      <trkpt lat="59.9746892" lon="17.7369523">
        <ele>28.4962</ele>
        <time>2013-05-13T17:54:25Z</time>
      </trkpt>
      <trkpt lat="59.9746812" lon="17.7369272">
        <ele>28.9769</ele>
        <time>2013-05-13T17:54:26Z</time>
      </trkpt>
      <trkpt lat="59.9746732" lon="17.7369035">
        <ele>28.9769</ele>
        <time>2013-05-13T17:54:27Z</time>
      </trkpt>
      <trkpt lat="59.9746652" lon="17.7368806">
        <ele>28.9769</ele>
        <time>2013-05-13T17:54:28Z</time>
      </trkpt>
      <trkpt lat="59.9746578" lon="17.7368575">
        <ele>28.9769</ele>
        <time>2013-05-13T17:54:29Z</time>
      </trkpt>
      <trkpt lat="59.9746505" lon="17.7368352">
        <ele>28.9769</ele>
        <time>2013-05-13T17:54:30Z</time>
      </trkpt>
      <trkpt lat="59.9746428" lon="17.7368129">
        <ele>28.9769</ele>
        <time>2013-05-13T17:54:31Z</time>
      </trkpt>
      <trkpt lat="59.9746346" lon="17.7367902">
        <ele>28.9769</ele>
        <time>2013-05-13T17:54:32Z</time>
      </trkpt>
      <trkpt lat="59.9746267" lon="17.7367666">
        <ele>28.9769</ele>
        <time>2013-05-13T17:54:33Z</time>
      </trkpt>
      <trkpt lat="59.9746215" lon="17.7367456">
        <ele>28.4962</ele>
        <time>2013-05-13T17:54:34Z</time>
      </trkpt>
      <trkpt lat="59.9746133" lon="17.7367212">
        <ele>28.9769</ele>
        <time>2013-05-13T17:54:35Z</time>
      </trkpt>
      <trkpt lat="59.9746071" lon="17.7366959">
        <ele>28.9769</ele>
        <time>2013-05-13T17:54:36Z</time>
      </trkpt>
      <trkpt lat="59.9746009" lon="17.7366721">
        <ele>28.9769</ele>
        <time>2013-05-13T17:54:37Z</time>
      </trkpt>
      <trkpt lat="59.9745944" lon="17.7366502">
        <ele>28.9769</ele>
        <time>2013-05-13T17:54:38Z</time>
      </trkpt>
      <trkpt lat="59.9745862" lon="17.7366278">
        <ele>28.9769</ele>
        <time>2013-05-13T17:54:39Z</time>
      </trkpt>
      <trkpt lat="59.9745801" lon="17.7366056">
        <ele>28.4962</ele>
        <time>2013-05-13T17:54:40Z</time>
      </trkpt>
      <trkpt lat="59.9745743" lon="17.7365799">
        <ele>28.4962</ele>
        <time>2013-05-13T17:54:41Z</time>
      </trkpt>
      <trkpt lat="59.9745676" lon="17.736556">
        <ele>28.4962</ele>
        <time>2013-05-13T17:54:42Z</time>
      </trkpt>
      <trkpt lat="59.9745604" lon="17.7365317">
        <ele>28.4962</ele>
        <time>2013-05-13T17:54:43Z</time>
      </trkpt>
      <trkpt lat="59.9745531" lon="17.7365046">
        <ele>28.4962</ele>
        <time>2013-05-13T17:54:44Z</time>
      </trkpt>
      <trkpt lat="59.974545" lon="17.7364784">
        <ele>28.4962</ele>
        <time>2013-05-13T17:54:45Z</time>
      </trkpt>
      <trkpt lat="59.9745374" lon="17.7364505">
        <ele>28.4962</ele>
        <time>2013-05-13T17:54:46Z</time>
      </trkpt>
      <trkpt lat="59.9745293" lon="17.736422">
        <ele>28.9769</ele>
        <time>2013-05-13T17:54:47Z</time>
      </trkpt>
      <trkpt lat="59.9745215" lon="17.7363981">
        <ele>28.9769</ele>
        <time>2013-05-13T17:54:48Z</time>
      </trkpt>
      <trkpt lat="59.974515" lon="17.7363742">
        <ele>28.9769</ele>
        <time>2013-05-13T17:54:49Z</time>
      </trkpt>
      <trkpt lat="59.9745097" lon="17.7363489">
        <ele>28.9769</ele>
        <time>2013-05-13T17:54:50Z</time>
      </trkpt>
      <trkpt lat="59.9745043" lon="17.7363203">
        <ele>28.9769</ele>
        <time>2013-05-13T17:54:51Z</time>
      </trkpt>
      <trkpt lat="59.9744978" lon="17.7362888">
        <ele>28.9769</ele>
        <time>2013-05-13T17:54:52Z</time>
      </trkpt>
      <trkpt lat="59.9744904" lon="17.73626">
        <ele>28.9769</ele>
        <time>2013-05-13T17:54:53Z</time>
      </trkpt>
      <trkpt lat="59.9744832" lon="17.7362349">
        <ele>28.9769</ele>
        <time>2013-05-13T17:54:54Z</time>
      </trkpt>
      <trkpt lat="59.9744753" lon="17.7362079">
        <ele>29.4575</ele>
        <time>2013-05-13T17:54:55Z</time>
      </trkpt>
      <trkpt lat="59.9744676" lon="17.7361773">
        <ele>29.4575</ele>
        <time>2013-05-13T17:54:56Z</time>
      </trkpt>
      <trkpt lat="59.9744603" lon="17.7361473">
        <ele>29.4575</ele>
        <time>2013-05-13T17:54:57Z</time>
      </trkpt>
      <trkpt lat="59.974454" lon="17.7361192">
        <ele>29.4575</ele>
        <time>2013-05-13T17:54:58Z</time>
      </trkpt>
      <trkpt lat="59.974448" lon="17.7360919">
        <ele>29.4575</ele>
        <time>2013-05-13T17:54:59Z</time>
      </trkpt>
      <trkpt lat="59.9744426" lon="17.7360644">
        <ele>29.4575</ele>
        <time>2013-05-13T17:55:00Z</time>
      </trkpt>
      <trkpt lat="59.9744372" lon="17.7360368">
        <ele>29.4575</ele>
        <time>2013-05-13T17:55:01Z</time>
      </trkpt>
      <trkpt lat="59.9744321" lon="17.7360085">
        <ele>29.9381</ele>
        <time>2013-05-13T17:55:02Z</time>
      </trkpt>
      <trkpt lat="59.9744269" lon="17.7359825">
        <ele>29.9381</ele>
        <time>2013-05-13T17:55:03Z</time>
      </trkpt>
      <trkpt lat="59.9744227" lon="17.7359554">
        <ele>29.4575</ele>
        <time>2013-05-13T17:55:04Z</time>
      </trkpt>
      <trkpt lat="59.974418" lon="17.7359301">
        <ele>29.4575</ele>
        <time>2013-05-13T17:55:05Z</time>
      </trkpt>
      <trkpt lat="59.9744121" lon="17.735905">
        <ele>29.4575</ele>
        <time>2013-05-13T17:55:06Z</time>
      </trkpt>
      <trkpt lat="59.9744086" lon="17.7358753">
        <ele>29.4575</ele>
        <time>2013-05-13T17:55:07Z</time>
      </trkpt>
      <trkpt lat="59.9744038" lon="17.7358461">
        <ele>29.4575</ele>
        <time>2013-05-13T17:55:08Z</time>
      </trkpt>
      <trkpt lat="59.9743983" lon="17.7358167">
        <ele>29.4575</ele>
        <time>2013-05-13T17:55:09Z</time>
      </trkpt>
      <trkpt lat="59.9743937" lon="17.7357889">
        <ele>29.4575</ele>
        <time>2013-05-13T17:55:10Z</time>
      </trkpt>
      <trkpt lat="59.9743896" lon="17.735762">
        <ele>29.4575</ele>
        <time>2013-05-13T17:55:11Z</time>
      </trkpt>
      <trkpt lat="59.9743855" lon="17.7357356">
        <ele>29.4575</ele>
        <time>2013-05-13T17:55:12Z</time>
      </trkpt>
      <trkpt lat="59.9743806" lon="17.7357107">
        <ele>29.4575</ele>
        <time>2013-05-13T17:55:13Z</time>
      </trkpt>
      <trkpt lat="59.9743734" lon="17.7356842">
        <ele>29.4575</ele>
        <time>2013-05-13T17:55:14Z</time>
      </trkpt>
      <trkpt lat="59.9743667" lon="17.735654">
        <ele>29.4575</ele>
        <time>2013-05-13T17:55:15Z</time>
      </trkpt>
      <trkpt lat="59.9743614" lon="17.7356272">
        <ele>29.4575</ele>
        <time>2013-05-13T17:55:16Z</time>
      </trkpt>
      <trkpt lat="59.9743564" lon="17.7356028">
        <ele>29.9381</ele>
        <time>2013-05-13T17:55:17Z</time>
      </trkpt>
      <trkpt lat="59.9743541" lon="17.7355776">
        <ele>29.4575</ele>
        <time>2013-05-13T17:55:18Z</time>
      </trkpt>
      <trkpt lat="59.9743521" lon="17.7355499">
        <ele>29.4575</ele>
        <time>2013-05-13T17:55:19Z</time>
      </trkpt>
      <trkpt lat="59.9743491" lon="17.735523">
        <ele>29.4575</ele>
        <time>2013-05-13T17:55:20Z</time>
      </trkpt>
      <trkpt lat="59.9743474" lon="17.7354921">
        <ele>28.9769</ele>
        <time>2013-05-13T17:55:21Z</time>
      </trkpt>
      <trkpt lat="59.9743454" lon="17.7354634">
        <ele>29.4575</ele>
        <time>2013-05-13T17:55:22Z</time>
      </trkpt>
      <trkpt lat="59.974342" lon="17.7354393">
        <ele>29.4575</ele>
        <time>2013-05-13T17:55:23Z</time>
      </trkpt>
      <trkpt lat="59.9743403" lon="17.7354163">
        <ele>29.4575</ele>
        <time>2013-05-13T17:55:24Z</time>
      </trkpt>
      <trkpt lat="59.9743372" lon="17.7353914">
        <ele>29.4575</ele>
        <time>2013-05-13T17:55:25Z</time>
      </trkpt>
      <trkpt lat="59.9743316" lon="17.7353657">
        <ele>28.9769</ele>
        <time>2013-05-13T17:55:26Z</time>
      </trkpt>
      <trkpt lat="59.9743258" lon="17.7353397">
        <ele>28.9769</ele>
        <time>2013-05-13T17:55:27Z</time>
      </trkpt>
      <trkpt lat="59.9743225" lon="17.7353088">
        <ele>28.9769</ele>
        <time>2013-05-13T17:55:28Z</time>
      </trkpt>
      <trkpt lat="59.9743211" lon="17.7352859">
        <ele>28.4962</ele>
        <time>2013-05-13T17:55:29Z</time>
      </trkpt>
      <trkpt lat="59.9743173" lon="17.7352601">
        <ele>28.0155</ele>
        <time>2013-05-13T17:55:30Z</time>
      </trkpt>
      <trkpt lat="59.9743137" lon="17.7352308">
        <ele>28.0155</ele>
        <time>2013-05-13T17:55:31Z</time>
      </trkpt>
      <trkpt lat="59.9743093" lon="17.7352031">
        <ele>27.5349</ele>
        <time>2013-05-13T17:55:32Z</time>
      </trkpt>
      <trkpt lat="59.9743051" lon="17.735177">
        <ele>27.5349</ele>
        <time>2013-05-13T17:55:33Z</time>
      </trkpt>
      <trkpt lat="59.9743018" lon="17.7351494">
        <ele>27.5349</ele>
        <time>2013-05-13T17:55:34Z</time>
      </trkpt>
      <trkpt lat="59.9742988" lon="17.7351216">
        <ele>27.5349</ele>
        <time>2013-05-13T17:55:35Z</time>
      </trkpt>
      <trkpt lat="59.9742961" lon="17.7350937">
        <ele>27.5349</ele>
        <time>2013-05-13T17:55:36Z</time>
      </trkpt>
      <trkpt lat="59.9742935" lon="17.735065">
        <ele>27.5349</ele>
        <time>2013-05-13T17:55:37Z</time>
      </trkpt>
      <trkpt lat="59.974291" lon="17.7350346">
        <ele>27.5349</ele>
        <time>2013-05-13T17:55:38Z</time>
      </trkpt>
      <trkpt lat="59.9742886" lon="17.7350066">
        <ele>27.0543</ele>
        <time>2013-05-13T17:55:39Z</time>
      </trkpt>
      <trkpt lat="59.9742857" lon="17.7349774">
        <ele>27.0543</ele>
        <time>2013-05-13T17:55:40Z</time>
      </trkpt>
      <trkpt lat="59.9742824" lon="17.734949">
        <ele>27.0543</ele>
        <time>2013-05-13T17:55:41Z</time>
      </trkpt>
      <trkpt lat="59.9742787" lon="17.7349201">
        <ele>27.0543</ele>
        <time>2013-05-13T17:55:42Z</time>
      </trkpt>
      <trkpt lat="59.974276" lon="17.7348931">
        <ele>27.0543</ele>
        <time>2013-05-13T17:55:43Z</time>
      </trkpt>
      <trkpt lat="59.974274" lon="17.7348671">
        <ele>27.0543</ele>
        <time>2013-05-13T17:55:44Z</time>
      </trkpt>
      <trkpt lat="59.9742715" lon="17.7348381">
        <ele>27.5349</ele>
        <time>2013-05-13T17:55:45Z</time>
      </trkpt>
      <trkpt lat="59.9742679" lon="17.7348057">
        <ele>27.5349</ele>
        <time>2013-05-13T17:55:46Z</time>
      </trkpt>
      <trkpt lat="59.9742641" lon="17.7347752">
        <ele>28.0155</ele>
        <time>2013-05-13T17:55:47Z</time>
      </trkpt>
      <trkpt lat="59.9742606" lon="17.7347471">
        <ele>28.0155</ele>
        <time>2013-05-13T17:55:48Z</time>
      </trkpt>
      <trkpt lat="59.974259" lon="17.7347193">
        <ele>28.0155</ele>
        <time>2013-05-13T17:55:49Z</time>
      </trkpt>
      <trkpt lat="59.9742583" lon="17.7346925">
        <ele>28.0155</ele>
        <time>2013-05-13T17:55:50Z</time>
      </trkpt>
      <trkpt lat="59.9742573" lon="17.7346637">
        <ele>28.0155</ele>
        <time>2013-05-13T17:55:51Z</time>
      </trkpt>
      <trkpt lat="59.9742553" lon="17.7346342">
        <ele>28.0155</ele>
        <time>2013-05-13T17:55:52Z</time>
      </trkpt>
      <trkpt lat="59.9742541" lon="17.734606">
        <ele>28.0155</ele>
        <time>2013-05-13T17:55:53Z</time>
      </trkpt>
      <trkpt lat="59.9742543" lon="17.7345788">
        <ele>28.0155</ele>
        <time>2013-05-13T17:55:54Z</time>
      </trkpt>
      <trkpt lat="59.9742538" lon="17.7345513">
        <ele>28.0155</ele>
        <time>2013-05-13T17:55:55Z</time>
      </trkpt>
      <trkpt lat="59.9742527" lon="17.7345252">
        <ele>27.5349</ele>
        <time>2013-05-13T17:55:56Z</time>
      </trkpt>
      <trkpt lat="59.9742531" lon="17.7344973">
        <ele>27.5349</ele>
        <time>2013-05-13T17:55:57Z</time>
      </trkpt>
      <trkpt lat="59.9742511" lon="17.7344694">
        <ele>28.0155</ele>
        <time>2013-05-13T17:55:58Z</time>
      </trkpt>
      <trkpt lat="59.9742532" lon="17.734442">
        <ele>28.0155</ele>
        <time>2013-05-13T17:55:59Z</time>
      </trkpt>
      <trkpt lat="59.9742533" lon="17.734416">
        <ele>28.0155</ele>
        <time>2013-05-13T17:56:00Z</time>
      </trkpt>
      <trkpt lat="59.9742529" lon="17.7343892">
        <ele>28.0155</ele>
        <time>2013-05-13T17:56:01Z</time>
      </trkpt>
      <trkpt lat="59.9742515" lon="17.7343605">
        <ele>28.0155</ele>
        <time>2013-05-13T17:56:02Z</time>
      </trkpt>
      <trkpt lat="59.9742502" lon="17.7343306">
        <ele>28.4962</ele>
        <time>2013-05-13T17:56:03Z</time>
      </trkpt>
      <trkpt lat="59.9742495" lon="17.7343016">
        <ele>28.0155</ele>
        <time>2013-05-13T17:56:04Z</time>
      </trkpt>
      <trkpt lat="59.9742486" lon="17.734275">
        <ele>28.0155</ele>
        <time>2013-05-13T17:56:05Z</time>
      </trkpt>
      <trkpt lat="59.9742485" lon="17.7342461">
        <ele>28.0155</ele>
        <time>2013-05-13T17:56:06Z</time>
      </trkpt>
      <trkpt lat="59.9742485" lon="17.7342199">
        <ele>28.0155</ele>
        <time>2013-05-13T17:56:07Z</time>
      </trkpt>
      <trkpt lat="59.9742517" lon="17.7341942">
        <ele>28.0155</ele>
        <time>2013-05-13T17:56:08Z</time>
      </trkpt>
      <trkpt lat="59.9742526" lon="17.7341647">
        <ele>28.0155</ele>
        <time>2013-05-13T17:56:09Z</time>
      </trkpt>
      <trkpt lat="59.9742513" lon="17.7341358">
        <ele>28.0155</ele>
        <time>2013-05-13T17:56:10Z</time>
      </trkpt>
      <trkpt lat="59.9742508" lon="17.7341078">
        <ele>28.0155</ele>
        <time>2013-05-13T17:56:11Z</time>
      </trkpt>
      <trkpt lat="59.9742487" lon="17.7340802">
        <ele>28.0155</ele>
        <time>2013-05-13T17:56:12Z</time>
      </trkpt>
      <trkpt lat="59.9742474" lon="17.7340507">
        <ele>28.4962</ele>
        <time>2013-05-13T17:56:13Z</time>
      </trkpt>
      <trkpt lat="59.9742474" lon="17.7340194">
        <ele>28.4962</ele>
        <time>2013-05-13T17:56:14Z</time>
      </trkpt>
      <trkpt lat="59.9742486" lon="17.7339904">
        <ele>28.4962</ele>
        <time>2013-05-13T17:56:15Z</time>
      </trkpt>
      <trkpt lat="59.9742495" lon="17.7339625">
        <ele>28.9769</ele>
        <time>2013-05-13T17:56:16Z</time>
      </trkpt>
      <trkpt lat="59.9742502" lon="17.7339334">
        <ele>28.9769</ele>
        <time>2013-05-13T17:56:17Z</time>
      </trkpt>
      <trkpt lat="59.9742512" lon="17.7339057">
        <ele>29.4575</ele>
        <time>2013-05-13T17:56:18Z</time>
      </trkpt>
      <trkpt lat="59.9742515" lon="17.7338775">
        <ele>29.4575</ele>
        <time>2013-05-13T17:56:19Z</time>
      </trkpt>
      <trkpt lat="59.9742491" lon="17.7338516">
        <ele>29.9381</ele>
        <time>2013-05-13T17:56:20Z</time>
      </trkpt>
      <trkpt lat="59.9742486" lon="17.7338277">
        <ele>29.9381</ele>
        <time>2013-05-13T17:56:21Z</time>
      </trkpt>
      <trkpt lat="59.9742487" lon="17.7338028">
        <ele>29.4575</ele>
        <time>2013-05-13T17:56:22Z</time>
      </trkpt>
      <trkpt lat="59.97425" lon="17.733776">
        <ele>29.4575</ele>
        <time>2013-05-13T17:56:23Z</time>
      </trkpt>
      <trkpt lat="59.9742515" lon="17.7337479">
        <ele>29.9381</ele>
        <time>2013-05-13T17:56:24Z</time>
      </trkpt>
      <trkpt lat="59.9742527" lon="17.7337205">
        <ele>29.4575</ele>
        <time>2013-05-13T17:56:25Z</time>
      </trkpt>
      <trkpt lat="59.9742539" lon="17.733693">
        <ele>29.4575</ele>
        <time>2013-05-13T17:56:26Z</time>
      </trkpt>
      <trkpt lat="59.9742547" lon="17.7336658">
        <ele>29.9381</ele>
        <time>2013-05-13T17:56:27Z</time>
      </trkpt>
      <trkpt lat="59.9742562" lon="17.7336402">
        <ele>29.4575</ele>
        <time>2013-05-13T17:56:28Z</time>
      </trkpt>
      <trkpt lat="59.9742574" lon="17.7336167">
        <ele>29.4575</ele>
        <time>2013-05-13T17:56:29Z</time>
      </trkpt>
      <trkpt lat="59.9742565" lon="17.7335921">
        <ele>28.9769</ele>
        <time>2013-05-13T17:56:30Z</time>
      </trkpt>
      <trkpt lat="59.9742559" lon="17.7335633">
        <ele>28.9769</ele>
        <time>2013-05-13T17:56:31Z</time>
      </trkpt>
      <trkpt lat="59.9742569" lon="17.7335345">
        <ele>28.4962</ele>
        <time>2013-05-13T17:56:32Z</time>
      </trkpt>
      <trkpt lat="59.974262" lon="17.733509">
        <ele>28.4962</ele>
        <time>2013-05-13T17:56:33Z</time>
      </trkpt>
      <trkpt lat="59.9742674" lon="17.7334835">
        <ele>28.0155</ele>
        <time>2013-05-13T17:56:34Z</time>
      </trkpt>
      <trkpt lat="59.9742705" lon="17.7334563">
        <ele>28.4962</ele>
        <time>2013-05-13T17:56:35Z</time>
      </trkpt>
      <trkpt lat="59.9742744" lon="17.7334282">
        <ele>28.4962</ele>
        <time>2013-05-13T17:56:36Z</time>
      </trkpt>
      <trkpt lat="59.9742766" lon="17.7333981">
        <ele>28.4962</ele>
        <time>2013-05-13T17:56:37Z</time>
      </trkpt>
      <trkpt lat="59.9742776" lon="17.7333695">
        <ele>28.4962</ele>
        <time>2013-05-13T17:56:38Z</time>
      </trkpt>
      <trkpt lat="59.9742777" lon="17.7333455">
        <ele>28.4962</ele>
        <time>2013-05-13T17:56:39Z</time>
      </trkpt>
      <trkpt lat="59.9742807" lon="17.7333201">
        <ele>28.4962</ele>
        <time>2013-05-13T17:56:40Z</time>
      </trkpt>
      <trkpt lat="59.9742832" lon="17.7332901">
        <ele>28.4962</ele>
        <time>2013-05-13T17:56:41Z</time>
      </trkpt>
      <trkpt lat="59.9742839" lon="17.7332619">
        <ele>28.9769</ele>
        <time>2013-05-13T17:56:42Z</time>
      </trkpt>
      <trkpt lat="59.9742833" lon="17.7332325">
        <ele>28.9769</ele>
        <time>2013-05-13T17:56:43Z</time>
      </trkpt>
      <trkpt lat="59.9742838" lon="17.7332022">
        <ele>28.9769</ele>
        <time>2013-05-13T17:56:44Z</time>
      </trkpt>
      <trkpt lat="59.9742818" lon="17.7331707">
        <ele>29.4575</ele>
        <time>2013-05-13T17:56:45Z</time>
      </trkpt>
      <trkpt lat="59.9742802" lon="17.7331392">
        <ele>29.4575</ele>
        <time>2013-05-13T17:56:46Z</time>
      </trkpt>
      <trkpt lat="59.9742795" lon="17.7331095">
        <ele>29.4575</ele>
        <time>2013-05-13T17:56:47Z</time>
      </trkpt>
      <trkpt lat="59.9742802" lon="17.73308">
        <ele>29.4575</ele>
        <time>2013-05-13T17:56:48Z</time>
      </trkpt>
      <trkpt lat="59.9742812" lon="17.7330517">
        <ele>29.9381</ele>
        <time>2013-05-13T17:56:49Z</time>
      </trkpt>
      <trkpt lat="59.9742816" lon="17.733023">
        <ele>29.9381</ele>
        <time>2013-05-13T17:56:50Z</time>
      </trkpt>
      <trkpt lat="59.9742821" lon="17.7329925">
        <ele>29.9381</ele>
        <time>2013-05-13T17:56:51Z</time>
      </trkpt>
      <trkpt lat="59.9742831" lon="17.7329636">
        <ele>29.9381</ele>
        <time>2013-05-13T17:56:52Z</time>
      </trkpt>
      <trkpt lat="59.9742847" lon="17.7329352">
        <ele>29.9381</ele>
        <time>2013-05-13T17:56:53Z</time>
      </trkpt>
      <trkpt lat="59.9742862" lon="17.7329066">
        <ele>29.9381</ele>
        <time>2013-05-13T17:56:54Z</time>
      </trkpt>
      <trkpt lat="59.974289" lon="17.7328764">
        <ele>29.9381</ele>
        <time>2013-05-13T17:56:55Z</time>
      </trkpt>
      <trkpt lat="59.9742916" lon="17.7328464">
        <ele>29.9381</ele>
        <time>2013-05-13T17:56:56Z</time>
      </trkpt>
      <trkpt lat="59.9742937" lon="17.7328165">
        <ele>29.9381</ele>
        <time>2013-05-13T17:56:57Z</time>
      </trkpt>
      <trkpt lat="59.9742951" lon="17.7327863">
        <ele>30.4188</ele>
        <time>2013-05-13T17:56:58Z</time>
      </trkpt>
      <trkpt lat="59.9742935" lon="17.7327559">
        <ele>30.4188</ele>
        <time>2013-05-13T17:56:59Z</time>
      </trkpt>
      <trkpt lat="59.9742919" lon="17.7327241">
        <ele>30.4188</ele>
        <time>2013-05-13T17:57:00Z</time>
      </trkpt>
      <trkpt lat="59.9742938" lon="17.7326922">
        <ele>30.4188</ele>
        <time>2013-05-13T17:57:01Z</time>
      </trkpt>
      <trkpt lat="59.9742946" lon="17.7326637">
        <ele>30.4188</ele>
        <time>2013-05-13T17:57:02Z</time>
      </trkpt>
      <trkpt lat="59.9742943" lon="17.7326345">
        <ele>30.4188</ele>
        <time>2013-05-13T17:57:03Z</time>
      </trkpt>
      <trkpt lat="59.9742938" lon="17.7326036">
        <ele>30.4188</ele>
        <time>2013-05-13T17:57:04Z</time>
      </trkpt>
      <trkpt lat="59.9742935" lon="17.732576">
        <ele>30.4188</ele>
        <time>2013-05-13T17:57:05Z</time>
      </trkpt>
      <trkpt lat="59.9742936" lon="17.7325477">
        <ele>30.4188</ele>
        <time>2013-05-13T17:57:06Z</time>
      </trkpt>
      <trkpt lat="59.974294" lon="17.7325208">
        <ele>29.9381</ele>
        <time>2013-05-13T17:57:07Z</time>
      </trkpt>
      <trkpt lat="59.9742937" lon="17.7324922">
        <ele>29.9381</ele>
        <time>2013-05-13T17:57:08Z</time>
      </trkpt>
      <trkpt lat="59.9742932" lon="17.7324638">
        <ele>29.9381</ele>
        <time>2013-05-13T17:57:09Z</time>
      </trkpt>
      <trkpt lat="59.974293" lon="17.7324366">
        <ele>29.9381</ele>
        <time>2013-05-13T17:57:10Z</time>
      </trkpt>
      <trkpt lat="59.9742922" lon="17.7324091">
        <ele>29.9381</ele>
        <time>2013-05-13T17:57:11Z</time>
      </trkpt>
      <trkpt lat="59.9742911" lon="17.7323813">
        <ele>29.9381</ele>
        <time>2013-05-13T17:57:12Z</time>
      </trkpt>
      <trkpt lat="59.97429" lon="17.7323529">
        <ele>29.9381</ele>
        <time>2013-05-13T17:57:13Z</time>
      </trkpt>
      <trkpt lat="59.9742886" lon="17.7323234">
        <ele>29.9381</ele>
        <time>2013-05-13T17:57:14Z</time>
      </trkpt>
      <trkpt lat="59.974289" lon="17.7322945">
        <ele>29.9381</ele>
        <time>2013-05-13T17:57:15Z</time>
      </trkpt>
      <trkpt lat="59.9742888" lon="17.7322683">
        <ele>29.4575</ele>
        <time>2013-05-13T17:57:16Z</time>
      </trkpt>
      <trkpt lat="59.9742875" lon="17.7322413">
        <ele>29.4575</ele>
        <time>2013-05-13T17:57:17Z</time>
      </trkpt>
      <trkpt lat="59.9742854" lon="17.732212">
        <ele>29.4575</ele>
        <time>2013-05-13T17:57:18Z</time>
      </trkpt>
      <trkpt lat="59.9742859" lon="17.7321817">
        <ele>29.4575</ele>
        <time>2013-05-13T17:57:19Z</time>
      </trkpt>
      <trkpt lat="59.974287" lon="17.7321555">
        <ele>28.9769</ele>
        <time>2013-05-13T17:57:20Z</time>
      </trkpt>
      <trkpt lat="59.9742864" lon="17.7321286">
        <ele>28.9769</ele>
        <time>2013-05-13T17:57:21Z</time>
      </trkpt>
      <trkpt lat="59.9742863" lon="17.732098">
        <ele>28.9769</ele>
        <time>2013-05-13T17:57:22Z</time>
      </trkpt>
      <trkpt lat="59.9742857" lon="17.732075">
        <ele>29.4575</ele>
        <time>2013-05-13T17:57:23Z</time>
      </trkpt>
      <trkpt lat="59.9742833" lon="17.7320494">
        <ele>28.9769</ele>
        <time>2013-05-13T17:57:24Z</time>
      </trkpt>
      <trkpt lat="59.974279" lon="17.732018">
        <ele>28.9769</ele>
        <time>2013-05-13T17:57:25Z</time>
      </trkpt>
      <trkpt lat="59.9742777" lon="17.7319902">
        <ele>28.9769</ele>
        <time>2013-05-13T17:57:26Z</time>
      </trkpt>
      <trkpt lat="59.974279" lon="17.7319613">
        <ele>28.9769</ele>
        <time>2013-05-13T17:57:27Z</time>
      </trkpt>
      <trkpt lat="59.9742792" lon="17.7319328">
        <ele>28.9769</ele>
        <time>2013-05-13T17:57:28Z</time>
      </trkpt>
      <trkpt lat="59.9742792" lon="17.7319027">
        <ele>28.9769</ele>
        <time>2013-05-13T17:57:29Z</time>
      </trkpt>
      <trkpt lat="59.9742792" lon="17.731873">
        <ele>28.9769</ele>
        <time>2013-05-13T17:57:30Z</time>
      </trkpt>
      <trkpt lat="59.9742787" lon="17.7318438">
        <ele>28.9769</ele>
        <time>2013-05-13T17:57:31Z</time>
      </trkpt>
      <trkpt lat="59.9742788" lon="17.7318146">
        <ele>28.9769</ele>
        <time>2013-05-13T17:57:32Z</time>
      </trkpt>
      <trkpt lat="59.974279" lon="17.7317849">
        <ele>28.9769</ele>
        <time>2013-05-13T17:57:33Z</time>
      </trkpt>
      <trkpt lat="59.9742812" lon="17.7317541">
        <ele>28.9769</ele>
        <time>2013-05-13T17:57:34Z</time>
      </trkpt>
      <trkpt lat="59.9742826" lon="17.7317238">
        <ele>28.9769</ele>
        <time>2013-05-13T17:57:35Z</time>
      </trkpt>
      <trkpt lat="59.9742833" lon="17.7316941">
        <ele>28.9769</ele>
        <time>2013-05-13T17:57:36Z</time>
      </trkpt>
      <trkpt lat="59.9742843" lon="17.7316645">
        <ele>29.4575</ele>
        <time>2013-05-13T17:57:37Z</time>
      </trkpt>
      <trkpt lat="59.9742849" lon="17.7316359">
        <ele>29.4575</ele>
        <time>2013-05-13T17:57:38Z</time>
      </trkpt>
      <trkpt lat="59.9742853" lon="17.7316054">
        <ele>29.4575</ele>
        <time>2013-05-13T17:57:39Z</time>
      </trkpt>
      <trkpt lat="59.9742848" lon="17.7315698">
        <ele>29.4575</ele>
        <time>2013-05-13T17:57:40Z</time>
      </trkpt>
      <trkpt lat="59.9742831" lon="17.7315381">
        <ele>29.4575</ele>
        <time>2013-05-13T17:57:41Z</time>
      </trkpt>
      <trkpt lat="59.9742827" lon="17.7315092">
        <ele>29.4575</ele>
        <time>2013-05-13T17:57:42Z</time>
      </trkpt>
      <trkpt lat="59.9742823" lon="17.7314775">
        <ele>29.4575</ele>
        <time>2013-05-13T17:57:43Z</time>
      </trkpt>
      <trkpt lat="59.9742812" lon="17.7314459">
        <ele>29.9381</ele>
        <time>2013-05-13T17:57:44Z</time>
      </trkpt>
      <trkpt lat="59.9742811" lon="17.7314154">
        <ele>29.9381</ele>
        <time>2013-05-13T17:57:45Z</time>
      </trkpt>
      <trkpt lat="59.9742812" lon="17.7313842">
        <ele>30.4188</ele>
        <time>2013-05-13T17:57:46Z</time>
      </trkpt>
      <trkpt lat="59.9742813" lon="17.7313516">
        <ele>30.4188</ele>
        <time>2013-05-13T17:57:47Z</time>
      </trkpt>
      <trkpt lat="59.9742815" lon="17.7313193">
        <ele>30.8995</ele>
        <time>2013-05-13T17:57:48Z</time>
      </trkpt>
      <trkpt lat="59.9742818" lon="17.731288">
        <ele>30.8995</ele>
        <time>2013-05-13T17:57:49Z</time>
      </trkpt>
      <trkpt lat="59.9742834" lon="17.7312551">
        <ele>31.3801</ele>
        <time>2013-05-13T17:57:50Z</time>
      </trkpt>
      <trkpt lat="59.9742834" lon="17.7312232">
        <ele>31.3801</ele>
        <time>2013-05-13T17:57:51Z</time>
      </trkpt>
      <trkpt lat="59.9742833" lon="17.7311924">
        <ele>31.8607</ele>
        <time>2013-05-13T17:57:52Z</time>
      </trkpt>
      <trkpt lat="59.9742844" lon="17.7311625">
        <ele>31.8607</ele>
        <time>2013-05-13T17:57:53Z</time>
      </trkpt>
      <trkpt lat="59.974286" lon="17.7311328">
        <ele>31.8607</ele>
        <time>2013-05-13T17:57:54Z</time>
      </trkpt>
      <trkpt lat="59.9742869" lon="17.731103">
        <ele>31.8607</ele>
        <time>2013-05-13T17:57:55Z</time>
      </trkpt>
      <trkpt lat="59.9742875" lon="17.7310729">
        <ele>31.8607</ele>
        <time>2013-05-13T17:57:56Z</time>
      </trkpt>
      <trkpt lat="59.974289" lon="17.7310429">
        <ele>31.8607</ele>
        <time>2013-05-13T17:57:57Z</time>
      </trkpt>
      <trkpt lat="59.9742911" lon="17.7310138">
        <ele>31.8607</ele>
        <time>2013-05-13T17:57:58Z</time>
      </trkpt>
      <trkpt lat="59.9742931" lon="17.7309843">
        <ele>32.3416</ele>
        <time>2013-05-13T17:57:59Z</time>
      </trkpt>
      <trkpt lat="59.9742948" lon="17.7309547">
        <ele>32.3416</ele>
        <time>2013-05-13T17:58:00Z</time>
      </trkpt>
      <trkpt lat="59.9742962" lon="17.7309259">
        <ele>32.3416</ele>
        <time>2013-05-13T17:58:01Z</time>
      </trkpt>
      <trkpt lat="59.9742967" lon="17.7308972">
        <ele>32.3416</ele>
        <time>2013-05-13T17:58:02Z</time>
      </trkpt>
      <trkpt lat="59.9742971" lon="17.7308676">
        <ele>32.3416</ele>
        <time>2013-05-13T17:58:03Z</time>
      </trkpt>
      <trkpt lat="59.9742984" lon="17.7308378">
        <ele>32.3416</ele>
        <time>2013-05-13T17:58:04Z</time>
      </trkpt>
      <trkpt lat="59.9743014" lon="17.7308083">
        <ele>32.3416</ele>
        <time>2013-05-13T17:58:05Z</time>
      </trkpt>
      <trkpt lat="59.9743031" lon="17.7307787">
        <ele>32.3416</ele>
        <time>2013-05-13T17:58:06Z</time>
      </trkpt>
      <trkpt lat="59.9743038" lon="17.7307477">
        <ele>32.3416</ele>
        <time>2013-05-13T17:58:07Z</time>
      </trkpt>
      <trkpt lat="59.9743047" lon="17.7307163">
        <ele>32.8223</ele>
        <time>2013-05-13T17:58:08Z</time>
      </trkpt>
      <trkpt lat="59.9743052" lon="17.7306854">
        <ele>32.8223</ele>
        <time>2013-05-13T17:58:09Z</time>
      </trkpt>
      <trkpt lat="59.9743054" lon="17.7306564">
        <ele>32.8223</ele>
        <time>2013-05-13T17:58:10Z</time>
      </trkpt>
      <trkpt lat="59.9743052" lon="17.7306249">
        <ele>32.8223</ele>
        <time>2013-05-13T17:58:11Z</time>
      </trkpt>
      <trkpt lat="59.9743066" lon="17.7305948">
        <ele>32.3416</ele>
        <time>2013-05-13T17:58:12Z</time>
      </trkpt>
      <trkpt lat="59.9743082" lon="17.7305704">
        <ele>32.3416</ele>
        <time>2013-05-13T17:58:13Z</time>
      </trkpt>
      <trkpt lat="59.9743124" lon="17.7305434">
        <ele>32.3416</ele>
        <time>2013-05-13T17:58:14Z</time>
      </trkpt>
      <trkpt lat="59.9743181" lon="17.730517">
        <ele>31.8607</ele>
        <time>2013-05-13T17:58:15Z</time>
      </trkpt>
      <trkpt lat="59.9743225" lon="17.7304906">
        <ele>31.8607</ele>
        <time>2013-05-13T17:58:16Z</time>
      </trkpt>
      <trkpt lat="59.9743256" lon="17.7304646">
        <ele>31.8607</ele>
        <time>2013-05-13T17:58:17Z</time>
      </trkpt>
      <trkpt lat="59.9743283" lon="17.7304386">
        <ele>31.8607</ele>
        <time>2013-05-13T17:58:18Z</time>
      </trkpt>
      <trkpt lat="59.9743304" lon="17.7304135">
        <ele>31.8607</ele>
        <time>2013-05-13T17:58:19Z</time>
      </trkpt>
      <trkpt lat="59.9743311" lon="17.7303887">
        <ele>31.8607</ele>
        <time>2013-05-13T17:58:20Z</time>
      </trkpt>
      <trkpt lat="59.9743328" lon="17.7303632">
        <ele>31.8607</ele>
        <time>2013-05-13T17:58:21Z</time>
      </trkpt>
      <trkpt lat="59.9743352" lon="17.7303352">
        <ele>32.3416</ele>
        <time>2013-05-13T17:58:22Z</time>
      </trkpt>
      <trkpt lat="59.9743375" lon="17.7303065">
        <ele>32.3416</ele>
        <time>2013-05-13T17:58:23Z</time>
      </trkpt>
      <trkpt lat="59.9743418" lon="17.7302783">
        <ele>32.3416</ele>
        <time>2013-05-13T17:58:24Z</time>
      </trkpt>
      <trkpt lat="59.9743464" lon="17.7302491">
        <ele>32.3416</ele>
        <time>2013-05-13T17:58:25Z</time>
      </trkpt>
      <trkpt lat="59.9743491" lon="17.7302202">
        <ele>32.3416</ele>
        <time>2013-05-13T17:58:26Z</time>
      </trkpt>
      <trkpt lat="59.9743527" lon="17.7301918">
        <ele>32.3416</ele>
        <time>2013-05-13T17:58:27Z</time>
      </trkpt>
      <trkpt lat="59.9743565" lon="17.7301644">
        <ele>32.3416</ele>
        <time>2013-05-13T17:58:28Z</time>
      </trkpt>
      <trkpt lat="59.9743595" lon="17.7301302">
        <ele>31.8607</ele>
        <time>2013-05-13T17:58:29Z</time>
      </trkpt>
      <trkpt lat="59.9743634" lon="17.7300949">
        <ele>31.8607</ele>
        <time>2013-05-13T17:58:30Z</time>
      </trkpt>
      <trkpt lat="59.9743666" lon="17.7300674">
        <ele>31.8607</ele>
        <time>2013-05-13T17:58:31Z</time>
      </trkpt>
      <trkpt lat="59.9743706" lon="17.73004">
        <ele>32.3416</ele>
        <time>2013-05-13T17:58:32Z</time>
      </trkpt>
      <trkpt lat="59.9743725" lon="17.7300124">
        <ele>31.8607</ele>
        <time>2013-05-13T17:58:33Z</time>
      </trkpt>
      <trkpt lat="59.9743744" lon="17.729985">
        <ele>31.8607</ele>
        <time>2013-05-13T17:58:34Z</time>
      </trkpt>
      <trkpt lat="59.9743765" lon="17.7299574">
        <ele>31.8607</ele>
        <time>2013-05-13T17:58:35Z</time>
      </trkpt>
      <trkpt lat="59.974379" lon="17.7299292">
        <ele>31.8607</ele>
        <time>2013-05-13T17:58:36Z</time>
      </trkpt>
      <trkpt lat="59.9743807" lon="17.7298995">
        <ele>32.3416</ele>
        <time>2013-05-13T17:58:37Z</time>
      </trkpt>
      <trkpt lat="59.9743822" lon="17.7298707">
        <ele>31.8607</ele>
        <time>2013-05-13T17:58:38Z</time>
      </trkpt>
      <trkpt lat="59.9743854" lon="17.7298422">
        <ele>32.3416</ele>
        <time>2013-05-13T17:58:39Z</time>
      </trkpt>
      <trkpt lat="59.9743865" lon="17.7298146">
        <ele>31.8607</ele>
        <time>2013-05-13T17:58:40Z</time>
      </trkpt>
      <trkpt lat="59.9743888" lon="17.7297861">
        <ele>31.8607</ele>
        <time>2013-05-13T17:58:41Z</time>
      </trkpt>
      <trkpt lat="59.9743903" lon="17.7297573">
        <ele>31.8607</ele>
        <time>2013-05-13T17:58:42Z</time>
      </trkpt>
      <trkpt lat="59.9743922" lon="17.729729">
        <ele>31.8607</ele>
        <time>2013-05-13T17:58:43Z</time>
      </trkpt>
      <trkpt lat="59.9743947" lon="17.7296986">
        <ele>31.8607</ele>
        <time>2013-05-13T17:58:44Z</time>
      </trkpt>
      <trkpt lat="59.9743978" lon="17.7296686">
        <ele>31.8607</ele>
        <time>2013-05-13T17:58:45Z</time>
      </trkpt>
      <trkpt lat="59.9744009" lon="17.7296415">
        <ele>31.8607</ele>
        <time>2013-05-13T17:58:46Z</time>
      </trkpt>
      <trkpt lat="59.9744028" lon="17.7296126">
        <ele>31.8607</ele>
        <time>2013-05-13T17:58:47Z</time>
      </trkpt>
      <trkpt lat="59.9744039" lon="17.729584">
        <ele>31.8607</ele>
        <time>2013-05-13T17:58:48Z</time>
      </trkpt>
      <trkpt lat="59.9744051" lon="17.7295552">
        <ele>32.3416</ele>
        <time>2013-05-13T17:58:49Z</time>
      </trkpt>
      <trkpt lat="59.9744074" lon="17.7295249">
        <ele>32.3416</ele>
        <time>2013-05-13T17:58:50Z</time>
      </trkpt>
      <trkpt lat="59.9744092" lon="17.7294948">
        <ele>32.3416</ele>
        <time>2013-05-13T17:58:51Z</time>
      </trkpt>
      <trkpt lat="59.9744096" lon="17.7294655">
        <ele>32.3416</ele>
        <time>2013-05-13T17:58:52Z</time>
      </trkpt>
      <trkpt lat="59.9744103" lon="17.7294327">
        <ele>32.3416</ele>
        <time>2013-05-13T17:58:53Z</time>
      </trkpt>
      <trkpt lat="59.9744118" lon="17.7293957">
        <ele>32.3416</ele>
        <time>2013-05-13T17:58:54Z</time>
      </trkpt>
      <trkpt lat="59.9744117" lon="17.7293612">
        <ele>32.3416</ele>
        <time>2013-05-13T17:58:55Z</time>
      </trkpt>
      <trkpt lat="59.9744095" lon="17.7293299">
        <ele>32.3416</ele>
        <time>2013-05-13T17:58:56Z</time>
      </trkpt>
      <trkpt lat="59.9744082" lon="17.7293003">
        <ele>32.8223</ele>
        <time>2013-05-13T17:58:57Z</time>
      </trkpt>
      <trkpt lat="59.9744082" lon="17.7292696">
        <ele>32.8223</ele>
        <time>2013-05-13T17:58:58Z</time>
      </trkpt>
      <trkpt lat="59.9744066" lon="17.7292422">
        <ele>32.8223</ele>
        <time>2013-05-13T17:58:59Z</time>
      </trkpt>
      <trkpt lat="59.9744039" lon="17.7292101">
        <ele>32.8223</ele>
        <time>2013-05-13T17:59:00Z</time>
      </trkpt>
      <trkpt lat="59.9744026" lon="17.7291754">
        <ele>32.8223</ele>
        <time>2013-05-13T17:59:01Z</time>
      </trkpt>
      <trkpt lat="59.9744035" lon="17.7291434">
        <ele>33.3029</ele>
        <time>2013-05-13T17:59:02Z</time>
      </trkpt>
      <trkpt lat="59.9744026" lon="17.7291128">
        <ele>33.3029</ele>
        <time>2013-05-13T17:59:03Z</time>
      </trkpt>
      <trkpt lat="59.9744024" lon="17.7290827">
        <ele>33.3029</ele>
        <time>2013-05-13T17:59:04Z</time>
      </trkpt>
      <trkpt lat="59.9744019" lon="17.7290541">
        <ele>33.3029</ele>
        <time>2013-05-13T17:59:05Z</time>
      </trkpt>
      <trkpt lat="59.9744015" lon="17.7290236">
        <ele>33.7834</ele>
        <time>2013-05-13T17:59:06Z</time>
      </trkpt>
      <trkpt lat="59.974401" lon="17.7289941">
        <ele>33.7834</ele>
        <time>2013-05-13T17:59:07Z</time>
      </trkpt>
      <trkpt lat="59.974401" lon="17.7289639">
        <ele>33.7834</ele>
        <time>2013-05-13T17:59:08Z</time>
      </trkpt>
      <trkpt lat="59.9744004" lon="17.7289352">
        <ele>33.7834</ele>
        <time>2013-05-13T17:59:09Z</time>
      </trkpt>
      <trkpt lat="59.9743991" lon="17.7289076">
        <ele>33.7834</ele>
        <time>2013-05-13T17:59:10Z</time>
      </trkpt>
      <trkpt lat="59.9743986" lon="17.7288802">
        <ele>33.7834</ele>
        <time>2013-05-13T17:59:11Z</time>
      </trkpt>
      <trkpt lat="59.9743995" lon="17.7288531">
        <ele>33.3029</ele>
        <time>2013-05-13T17:59:12Z</time>
      </trkpt>
      <trkpt lat="59.9744009" lon="17.7288278">
        <ele>33.3029</ele>
        <time>2013-05-13T17:59:13Z</time>
      </trkpt>
      <trkpt lat="59.974401" lon="17.7288038">
        <ele>32.8223</ele>
        <time>2013-05-13T17:59:14Z</time>
      </trkpt>
      <trkpt lat="59.9743994" lon="17.728775">
        <ele>32.8223</ele>
        <time>2013-05-13T17:59:15Z</time>
      </trkpt>
      <trkpt lat="59.9743977" lon="17.7287463">
        <ele>32.8223</ele>
        <time>2013-05-13T17:59:16Z</time>
      </trkpt>
      <trkpt lat="59.9743968" lon="17.7287181">
        <ele>32.3416</ele>
        <time>2013-05-13T17:59:17Z</time>
      </trkpt>
      <trkpt lat="59.974396" lon="17.7286904">
        <ele>32.3416</ele>
        <time>2013-05-13T17:59:18Z</time>
      </trkpt>
      <trkpt lat="59.9743952" lon="17.728661">
        <ele>31.8607</ele>
        <time>2013-05-13T17:59:19Z</time>
      </trkpt>
      <trkpt lat="59.9743938" lon="17.7286325">
        <ele>31.8607</ele>
        <time>2013-05-13T17:59:20Z</time>
      </trkpt>
      <trkpt lat="59.9743931" lon="17.7286042">
        <ele>31.8607</ele>
        <time>2013-05-13T17:59:21Z</time>
      </trkpt>
      <trkpt lat="59.9743929" lon="17.7285764">
        <ele>31.3801</ele>
        <time>2013-05-13T17:59:22Z</time>
      </trkpt>
      <trkpt lat="59.9743915" lon="17.7285498">
        <ele>31.3801</ele>
        <time>2013-05-13T17:59:23Z</time>
      </trkpt>
      <trkpt lat="59.9743904" lon="17.7285257">
        <ele>30.8995</ele>
        <time>2013-05-13T17:59:24Z</time>
      </trkpt>
      <trkpt lat="59.9743888" lon="17.7284984">
        <ele>30.8995</ele>
        <time>2013-05-13T17:59:25Z</time>
      </trkpt>
      <trkpt lat="59.9743873" lon="17.7284666">
        <ele>30.8995</ele>
        <time>2013-05-13T17:59:26Z</time>
      </trkpt>
      <trkpt lat="59.9743867" lon="17.7284367">
        <ele>30.8995</ele>
        <time>2013-05-13T17:59:27Z</time>
      </trkpt>
      <trkpt lat="59.9743859" lon="17.7284081">
        <ele>30.4188</ele>
        <time>2013-05-13T17:59:28Z</time>
      </trkpt>
      <trkpt lat="59.9743858" lon="17.7283816">
        <ele>30.4188</ele>
        <time>2013-05-13T17:59:29Z</time>
      </trkpt>
      <trkpt lat="59.9743864" lon="17.7283549">
        <ele>30.4188</ele>
        <time>2013-05-13T17:59:30Z</time>
      </trkpt>
      <trkpt lat="59.9743864" lon="17.7283269">
        <ele>29.9381</ele>
        <time>2013-05-13T17:59:31Z</time>
      </trkpt>
      <trkpt lat="59.9743878" lon="17.7282999">
        <ele>29.9381</ele>
        <time>2013-05-13T17:59:32Z</time>
      </trkpt>
      <trkpt lat="59.9743878" lon="17.7282731">
        <ele>29.4575</ele>
        <time>2013-05-13T17:59:33Z</time>
      </trkpt>
      <trkpt lat="59.974388" lon="17.7282466">
        <ele>29.4575</ele>
        <time>2013-05-13T17:59:34Z</time>
      </trkpt>
      <trkpt lat="59.9743862" lon="17.7282203">
        <ele>29.4575</ele>
        <time>2013-05-13T17:59:35Z</time>
      </trkpt>
      <trkpt lat="59.9743841" lon="17.7281936">
        <ele>29.4575</ele>
        <time>2013-05-13T17:59:36Z</time>
      </trkpt>
      <trkpt lat="59.9743841" lon="17.7281648">
        <ele>29.4575</ele>
        <time>2013-05-13T17:59:37Z</time>
      </trkpt>
      <trkpt lat="59.9743824" lon="17.728138">
        <ele>28.9769</ele>
        <time>2013-05-13T17:59:38Z</time>
      </trkpt>
      <trkpt lat="59.9743818" lon="17.728112">
        <ele>28.9769</ele>
        <time>2013-05-13T17:59:39Z</time>
      </trkpt>
      <trkpt lat="59.9743822" lon="17.728085">
        <ele>28.9769</ele>
        <time>2013-05-13T17:59:40Z</time>
      </trkpt>
      <trkpt lat="59.9743834" lon="17.7280608">
        <ele>28.4962</ele>
        <time>2013-05-13T17:59:41Z</time>
      </trkpt>
      <trkpt lat="59.9743854" lon="17.7280356">
        <ele>28.4962</ele>
        <time>2013-05-13T17:59:42Z</time>
      </trkpt>
      <trkpt lat="59.9743869" lon="17.7280063">
        <ele>28.4962</ele>
        <time>2013-05-13T17:59:43Z</time>
      </trkpt>
      <trkpt lat="59.9743883" lon="17.7279799">
        <ele>28.4962</ele>
        <time>2013-05-13T17:59:44Z</time>
      </trkpt>
      <trkpt lat="59.9743859" lon="17.7279528">
        <ele>28.4962</ele>
        <time>2013-05-13T17:59:45Z</time>
      </trkpt>
      <trkpt lat="59.9743853" lon="17.7279239">
        <ele>28.4962</ele>
        <time>2013-05-13T17:59:46Z</time>
      </trkpt>
      <trkpt lat="59.9743844" lon="17.727899">
        <ele>28.4962</ele>
        <time>2013-05-13T17:59:47Z</time>
      </trkpt>
      <trkpt lat="59.9743867" lon="17.7278773">
        <ele>27.5349</ele>
        <time>2013-05-13T17:59:48Z</time>
      </trkpt>
      <trkpt lat="59.9743865" lon="17.7278535">
        <ele>27.5349</ele>
        <time>2013-05-13T17:59:49Z</time>
      </trkpt>
      <trkpt lat="59.9743859" lon="17.7278263">
        <ele>27.5349</ele>
        <time>2013-05-13T17:59:50Z</time>
      </trkpt>
      <trkpt lat="59.9743847" lon="17.7277979">
        <ele>27.0543</ele>
        <time>2013-05-13T17:59:51Z</time>
      </trkpt>
      <trkpt lat="59.9743854" lon="17.7277699">
        <ele>27.5349</ele>
        <time>2013-05-13T17:59:52Z</time>
      </trkpt>
    </trkseg>
  </trk>
</gpx>